Wetterdaten: Donnerstag, 28.05.2020
Datum Zeit Temp. Aussen Temp. o. S. Temp +5cm Feuchte Auss Luftdruck Regen Sonnenschein Regendauer Solar Windben Empfang
28.05.2020 00:00 15,9 C 14,4 C 14,4 C 75 % 1033,1 hPa 0,0 l/m 0 min 0 min 0 W/m 3,2 km/h (1 Bft) 95,74 %
28.05.2020 00:02 15,9 C 14,4 C 14,4 C 75 % 1033,0 hPa 0,0 l/m 0 min 0 min 0 W/m 3,2 km/h (1 Bft) 94,74 %
28.05.2020 00:04 15,9 C 14,4 C 14,4 C 75 % 1033,0 hPa 0,0 l/m 0 min 0 min 0 W/m 9,7 km/h (2 Bft) 95,65 %
28.05.2020 00:08 15,8 C 14,4 C 14,4 C 75 % 1033,1 hPa 0,0 l/m 0 min 0 min 0 W/m 3,2 km/h (1 Bft) 97,87 %
28.05.2020 00:10 15,8 C 14,4 C 14,4 C 75 % 1033,0 hPa 0,0 l/m 0 min 0 min 0 W/m 3,2 km/h (1 Bft) 97,87 %
28.05.2020 00:12 15,8 C 14,4 C 14,4 C 75 % 1033,0 hPa 0,0 l/m 0 min 0 min 0 W/m 6,4 km/h (2 Bft) 97,62 %
28.05.2020 00:14 15,8 C 14,4 C 14,4 C 75 % 1033,0 hPa 0,0 l/m 0 min 0 min 0 W/m 3,2 km/h (1 Bft) 95,74 %
28.05.2020 00:16 15,7 C 14,4 C 14,4 C 75 % 1033,0 hPa 0,0 l/m 0 min 0 min 0 W/m 6,4 km/h (2 Bft) 95,65 %
28.05.2020 00:18 15,7 C 14,4 C 14,4 C 75 % 1033,0 hPa 0,0 l/m 0 min 0 min 0 W/m 0,0 km/h (0 Bft) 97,87 %
28.05.2020 00:20 15,7 C 14,4 C 14,4 C 75 % 1032,9 hPa 0,0 l/m 0 min 0 min 0 W/m 3,2 km/h (1 Bft) 97,87 %
28.05.2020 00:22 15,7 C 14,4 C 14,4 C 75 % 1032,9 hPa 0,0 l/m 0 min 0 min 0 W/m 3,2 km/h (1 Bft) 97,87 %
28.05.2020 00:24 15,6 C 14,4 C 14,4 C 75 % 1032,9 hPa 0,0 l/m 0 min 0 min 0 W/m 6,4 km/h (2 Bft) 95,74 %
28.05.2020 00:26 15,6 C 14,4 C 14,4 C 75 % 1032,9 hPa 0,0 l/m 0 min 0 min 0 W/m 6,4 km/h (2 Bft) 95,83 %
28.05.2020 00:28 15,6 C 14,4 C 14,4 C 75 % 1033,0 hPa 0,0 l/m 0 min 0 min 0 W/m 9,7 km/h (2 Bft) 95,65 %
28.05.2020 00:30 15,6 C 14,4 C 14,4 C 75 % 1033,0 hPa 0,0 l/m 0 min 0 min 0 W/m 6,4 km/h (2 Bft) 97,87 %
28.05.2020 00:32 15,6 C 14,4 C 14,4 C 74 % 1033,0 hPa 0,0 l/m 0 min 0 min 0 W/m 0,0 km/h (0 Bft) 95,92 %
28.05.2020 00:34 15,6 C 14,4 C 14,4 C 75 % 1033,1 hPa 0,0 l/m 0 min 0 min 0 W/m 0,0 km/h (0 Bft) 95,74 %
28.05.2020 00:36 15,6 C 14,4 C 14,4 C 74 % 1033,1 hPa 0,0 l/m 0 min 0 min 0 W/m 6,4 km/h (2 Bft) 95,83 %
28.05.2020 00:38 15,5 C 14,4 C 14,4 C 74 % 1033,1 hPa 0,0 l/m 0 min 0 min 0 W/m 3,2 km/h (1 Bft) 95,65 %
28.05.2020 00:40 15,5 C 14,4 C 14,4 C 74 % 1033,0 hPa 0,0 l/m 0 min 0 min 0 W/m 3,2 km/h (1 Bft) 95,74 %
28.05.2020 00:42 15,5 C 14,4 C 14,4 C 75 % 1033,1 hPa 0,0 l/m 0 min 0 min 0 W/m 9,7 km/h (2 Bft) 97,92 %
28.05.2020 00:44 15,4 C 14,4 C 14,4 C 74 % 1033,1 hPa 0,0 l/m 0 min 0 min 0 W/m 3,2 km/h (1 Bft) 95,74 %
28.05.2020 00:46 15,4 C 14,4 C 14,4 C 74 % 1033,1 hPa 0,0 l/m 0 min 0 min 0 W/m 3,2 km/h (1 Bft) 97,87 %
28.05.2020 00:48 15,4 C 14,4 C 14,4 C 74 % 1033,1 hPa 0,0 l/m 0 min 0 min 0 W/m 6,4 km/h (2 Bft) 93,62 %
28.05.2020 00:50 15,4 C 14,4 C 14,4 C 74 % 1033,1 hPa 0,0 l/m 0 min 0 min 0 W/m 6,4 km/h (2 Bft) 97,87 %
28.05.2020 00:52 15,3 C 14,4 C 14,4 C 74 % 1033,1 hPa 0,0 l/m 0 min 0 min 0 W/m 6,4 km/h (2 Bft) 95,65 %
28.05.2020 00:54 15,3 C 14,4 C 14,4 C 73 % 1033,1 hPa 0,0 l/m 0 min 0 min 0 W/m 3,2 km/h (1 Bft) 97,87 %
28.05.2020 00:56 15,3 C 14,4 C 14,4 C 73 % 1033,1 hPa 0,0 l/m 0 min 0 min 0 W/m 6,4 km/h (2 Bft) 95,74 %
28.05.2020 00:58 15,3 C 14,4 C 14,4 C 73 % 1033,1 hPa 0,0 l/m 0 min 0 min 0 W/m 3,2 km/h (1 Bft) 97,87 %
28.05.2020 01:00 15,3 C 14,4 C 14,4 C 73 % 1033,2 hPa 0,0 l/m 0 min 0 min 0 W/m 3,2 km/h (1 Bft) 97,87 %
28.05.2020 01:02 15,3 C 14,4 C 14,4 C 72 % 1033,1 hPa 0,0 l/m 0 min 0 min 0 W/m 3,2 km/h (1 Bft) 95,74 %
28.05.2020 01:04 15,3 C 14,4 C 14,4 C 72 % 1033,1 hPa 0,0 l/m 0 min 0 min 0 W/m 6,4 km/h (2 Bft) 97,83 %
28.05.2020 01:06 15,3 C 14,4 C 14,4 C 72 % 1033,1 hPa 0,0 l/m 0 min 0 min 0 W/m 6,4 km/h (2 Bft) 97,87 %
28.05.2020 01:08 15,3 C 14,4 C 14,4 C 72 % 1033,1 hPa 0,0 l/m 0 min 0 min 0 W/m 0,0 km/h (0 Bft) 97,87 %
28.05.2020 01:10 15,3 C 14,4 C 14,4 C 72 % 1033,1 hPa 0,0 l/m 0 min 0 min 0 W/m 12,9 km/h (3 Bft) 93,62 %
28.05.2020 01:12 15,3 C 14,4 C 14,4 C 72 % 1033,1 hPa 0,0 l/m 0 min 0 min 0 W/m 3,2 km/h (1 Bft) 95,74 %
28.05.2020 01:14 15,2 C 14,4 C 14,4 C 72 % 1033,1 hPa 0,0 l/m 0 min 0 min 0 W/m 3,2 km/h (1 Bft) 97,83 %
28.05.2020 01:16 15,2 C 14,4 C 14,4 C 72 % 1033,2 hPa 0,0 l/m 0 min 0 min 0 W/m 6,4 km/h (2 Bft) 97,87 %
28.05.2020 01:18 15,2 C 14,4 C 14,4 C 72 % 1033,2 hPa 0,0 l/m 0 min 0 min 0 W/m 3,2 km/h (1 Bft) 97,87 %
28.05.2020 01:20 15,2 C 14,4 C 14,4 C 72 % 1033,2 hPa 0,0 l/m 0 min 0 min 0 W/m 3,2 km/h (1 Bft) 97,87 %
28.05.2020 01:22 15,2 C 13,9 C 14,4 C 72 % 1033,2 hPa 0,0 l/m 0 min 0 min 0 W/m 3,2 km/h (1 Bft) 97,62 %
28.05.2020 01:24 15,2 C 13,9 C 14,4 C 72 % 1033,2 hPa 0,0 l/m 0 min 0 min 0 W/m 3,2 km/h (1 Bft) 100,00 %
28.05.2020 01:26 15,2 C 14,4 C 14,4 C 72 % 1033,2 hPa 0,0 l/m 0 min 0 min 0 W/m 3,2 km/h (1 Bft) 100,00 %
28.05.2020 01:28 15,2 C 13,9 C 13,9 C 72 % 1033,3 hPa 0,0 l/m 0 min 0 min 0 W/m 3,2 km/h (1 Bft) 100,00 %
28.05.2020 01:30 15,2 C 13,9 C 13,9 C 71 % 1033,3 hPa 0,0 l/m 0 min 0 min 0 W/m 0,0 km/h (0 Bft) 100,00 %
28.05.2020 01:32 15,2 C 13,9 C 13,9 C 71 % 1033,3 hPa 0,0 l/m 0 min 0 min 0 W/m 3,2 km/h (1 Bft) 100,00 %
28.05.2020 01:34 15,1 C 13,9 C 13,9 C 71 % 1033,3 hPa 0,0 l/m 0 min 0 min 0 W/m 6,4 km/h (2 Bft) 100,00 %
28.05.2020 01:36 15,1 C 13,9 C 13,9 C 70 % 1033,4 hPa 0,0 l/m 0 min 0 min 0 W/m 9,7 km/h (2 Bft) 100,00 %
28.05.2020 01:38 15,1 C 13,9 C 13,9 C 70 % 1033,4 hPa 0,0 l/m 0 min 0 min 0 W/m 6,4 km/h (2 Bft) 100,00 %
28.05.2020 01:40 15,0 C 13,9 C 13,9 C 69 % 1033,4 hPa 0,0 l/m 0 min 0 min 0 W/m 6,4 km/h (2 Bft) 100,00 %
28.05.2020 01:42 14,9 C 13,9 C 13,9 C 69 % 1033,4 hPa 0,0 l/m 0 min 0 min 0 W/m 12,9 km/h (3 Bft) 100,00 %
28.05.2020 01:44 14,9 C 13,3 C 13,9 C 68 % 1033,4 hPa 0,0 l/m 0 min 0 min 0 W/m 3,2 km/h (1 Bft) 95,74 %
28.05.2020 01:46 14,9 C 13,3 C 13,9 C 68 % 1033,4 hPa 0,0 l/m 0 min 0 min 0 W/m 9,7 km/h (2 Bft) 100,00 %
28.05.2020 01:48 14,8 C 13,3 C 13,9 C 67 % 1033,4 hPa 0,0 l/m 0 min 0 min 0 W/m 6,4 km/h (2 Bft) 100,00 %
28.05.2020 01:50 14,7 C 13,3 C 13,3 C 67 % 1033,4 hPa 0,0 l/m 0 min 0 min 0 W/m 9,7 km/h (2 Bft) 100,00 %
28.05.2020 01:52 14,7 C 13,3 C 13,3 C 66 % 1033,4 hPa 0,0 l/m 0 min 0 min 0 W/m 3,2 km/h (1 Bft) 100,00 %
28.05.2020 01:54 14,7 C 13,3 C 13,3 C 66 % 1033,5 hPa 0,0 l/m 0 min 0 min 0 W/m 0,0 km/h (0 Bft) 100,00 %
28.05.2020 01:56 14,6 C 12,8 C 13,3 C 67 % 1033,5 hPa 0,0 l/m 0 min 0 min 0 W/m 3,2 km/h (1 Bft) 100,00 %
28.05.2020 01:58 14,6 C 12,8 C 13,3 C 67 % 1033,5 hPa 0,0 l/m 0 min 0 min 0 W/m 0,0 km/h (0 Bft) 100,00 %
28.05.2020 02:00 14,6 C 12,8 C 13,3 C 66 % 1033,5 hPa 0,0 l/m 0 min 0 min 0 W/m 3,2 km/h (1 Bft) 97,87 %
28.05.2020 02:02 14,4 C 12,8 C 12,8 C 66 % 1033,5 hPa 0,0 l/m 0 min 0 min 0 W/m 9,7 km/h (2 Bft) 97,96 %
28.05.2020 02:04 14,4 C 12,8 C 12,8 C 66 % 1033,5 hPa 0,0 l/m 0 min 0 min 0 W/m 3,2 km/h (1 Bft) 100,00 %
28.05.2020 02:06 14,3 C 12,2 C 12,8 C 66 % 1033,5 hPa 0,0 l/m 0 min 0 min 0 W/m 3,2 km/h (1 Bft) 97,87 %
28.05.2020 02:08 14,3 C 12,2 C 12,8 C 66 % 1033,5 hPa 0,0 l/m 0 min 0 min 0 W/m 6,4 km/h (2 Bft) 100,00 %
28.05.2020 02:10 14,3 C 12,2 C 12,8 C 66 % 1033,5 hPa 0,0 l/m 0 min 0 min 0 W/m 6,4 km/h (2 Bft) 100,00 %
28.05.2020 02:12 14,2 C 12,2 C 12,8 C 65 % 1033,5 hPa 0,0 l/m 0 min 0 min 0 W/m 9,7 km/h (2 Bft) 100,00 %
28.05.2020 02:14 14,1 C 12,2 C 12,8 C 66 % 1033,5 hPa 0,0 l/m 0 min 0 min 0 W/m 3,2 km/h (1 Bft) 100,00 %
28.05.2020 02:16 14,0 C 12,2 C 12,8 C 66 % 1033,5 hPa 0,0 l/m 0 min 0 min 0 W/m 6,4 km/h (2 Bft) 100,00 %
28.05.2020 02:18 13,9 C 12,2 C 12,8 C 65 % 1033,5 hPa 0,0 l/m 0 min 0 min 0 W/m 12,9 km/h (3 Bft) 100,00 %
28.05.2020 02:20 13,8 C 12,2 C 12,2 C 65 % 1033,5 hPa 0,0 l/m 0 min 0 min 0 W/m 3,2 km/h (1 Bft) 100,00 %
28.05.2020 02:22 13,7 C 11,7 C 12,2 C 65 % 1033,4 hPa 0,0 l/m 0 min 0 min 0 W/m 0,0 km/h (0 Bft) 100,00 %
28.05.2020 02:24 13,7 C 11,7 C 12,2 C 65 % 1033,5 hPa 0,0 l/m 0 min 0 min 0 W/m 6,4 km/h (2 Bft) 100,00 %
28.05.2020 02:26 13,6 C 11,7 C 12,2 C 65 % 1033,4 hPa 0,0 l/m 0 min 0 min 0 W/m 6,4 km/h (2 Bft) 97,87 %
28.05.2020 02:28 13,5 C 11,7 C 12,2 C 65 % 1033,5 hPa 0,0 l/m 0 min 0 min 0 W/m 6,4 km/h (2 Bft) 100,00 %
28.05.2020 02:30 13,4 C 11,7 C 12,2 C 66 % 1033,5 hPa 0,0 l/m 0 min 0 min 0 W/m 3,2 km/h (1 Bft) 98,00 %
28.05.2020 02:32 13,4 C 11,7 C 12,2 C 66 % 1033,5 hPa 0,0 l/m 0 min 0 min 0 W/m 3,2 km/h (1 Bft) 97,92 %
28.05.2020 02:34 13,3 C 11,7 C 12,2 C 66 % 1033,5 hPa 0,0 l/m 0 min 0 min 0 W/m 3,2 km/h (1 Bft) 100,00 %
28.05.2020 02:36 13,2 C 11,7 C 12,2 C 66 % 1033,5 hPa 0,0 l/m 0 min 0 min 0 W/m 12,9 km/h (3 Bft) 97,87 %
28.05.2020 02:38 13,2 C 11,7 C 12,2 C 66 % 1033,4 hPa 0,0 l/m 0 min 0 min 0 W/m 6,4 km/h (2 Bft) 97,87 %
28.05.2020 02:40 13,1 C 11,7 C 12,2 C 66 % 1033,4 hPa 0,0 l/m 0 min 0 min 0 W/m 6,4 km/h (2 Bft) 100,00 %
28.05.2020 02:42 13,1 C 11,1 C 11,7 C 67 % 1033,4 hPa 0,0 l/m 0 min 0 min 0 W/m 6,4 km/h (2 Bft) 97,87 %
28.05.2020 02:44 12,9 C 11,1 C 11,7 C 67 % 1033,4 hPa 0,0 l/m 0 min 0 min 0 W/m 6,4 km/h (2 Bft) 100,00 %
28.05.2020 02:46 12,9 C 11,1 C 11,7 C 67 % 1033,4 hPa 0,0 l/m 0 min 0 min 0 W/m 6,4 km/h (2 Bft) 97,83 %
28.05.2020 02:48 12,9 C 11,1 C 11,7 C 67 % 1033,5 hPa 0,0 l/m 0 min 0 min 0 W/m 6,4 km/h (2 Bft) 97,87 %
28.05.2020 02:50 12,8 C 11,1 C 11,7 C 67 % 1033,5 hPa 0,0 l/m 0 min 0 min 0 W/m 6,4 km/h (2 Bft) 97,87 %
28.05.2020 02:52 12,8 C 11,1 C 11,7 C 68 % 1033,6 hPa 0,0 l/m 0 min 0 min 0 W/m 3,2 km/h (1 Bft) 95,74 %
28.05.2020 02:54 12,7 C 11,1 C 11,7 C 68 % 1033,5 hPa 0,0 l/m 0 min 0 min 0 W/m 0,0 km/h (0 Bft) 95,74 %
28.05.2020 02:56 12,7 C 11,1 C 11,7 C 68 % 1033,5 hPa 0,0 l/m 0 min 0 min 0 W/m 3,2 km/h (1 Bft) 97,87 %
28.05.2020 02:58 12,6 C 10,6 C 11,7 C 69 % 1033,5 hPa 0,0 l/m 0 min 0 min 0 W/m 3,2 km/h (1 Bft) 97,83 %
28.05.2020 03:00 12,6 C 10,6 C 11,7 C 68 % 1033,5 hPa 0,0 l/m 0 min 0 min 0 W/m 0,0 km/h (0 Bft) 91,49 %
28.05.2020 03:02 12,6 C 10,6 C 11,1 C 69 % 1033,6 hPa 0,0 l/m 0 min 0 min 0 W/m 3,2 km/h (1 Bft) 93,18 %
28.05.2020 03:04 12,5 C 10,6 C 11,1 C 69 % 1033,5 hPa 0,0 l/m 0 min 0 min 0 W/m 19,3 km/h (3 Bft) 90,00 %
28.05.2020 03:06 12,4 C 10,6 C 11,1 C 69 % 1033,5 hPa 0,0 l/m 0 min 0 min 0 W/m 3,2 km/h (1 Bft) 95,65 %
28.05.2020 03:08 12,3 C 10,6 C 11,1 C 70 % 1033,6 hPa 0,0 l/m 0 min 0 min 0 W/m 12,9 km/h (3 Bft) 93,75 %
28.05.2020 03:10 12,3 C 10,6 C 11,1 C 70 % 1033,6 hPa 0,0 l/m 0 min 0 min 0 W/m 9,7 km/h (2 Bft) 94,29 %
28.05.2020 03:12 12,3 C 10,6 C 11,1 C 70 % 1033,6 hPa 0,0 l/m 0 min 0 min 0 W/m 3,2 km/h (1 Bft) 93,62 %
28.05.2020 03:14 12,2 C 10,6 C 11,1 C 71 % 1033,6 hPa 0,0 l/m 0 min 0 min 0 W/m 3,2 km/h (1 Bft) 91,49 %
28.05.2020 03:16 12,2 C 10,0 C 11,1 C 71 % 1033,6 hPa 0,0 l/m 0 min 0 min 0 W/m 3,2 km/h (1 Bft) 93,75 %
28.05.2020 03:18 12,1 C 10,0 C 10,6 C 71 % 1033,6 hPa 0,0 l/m 0 min 0 min 0 W/m 0,0 km/h (0 Bft) 93,75 %
28.05.2020 03:20 12,1 C 10,0 C 10,6 C 71 % 1033,6 hPa 0,0 l/m 0 min 0 min 0 W/m 0,0 km/h (0 Bft) 93,48 %
28.05.2020 03:22 12,0 C 10,0 C 10,6 C 72 % 1033,6 hPa 0,0 l/m 0 min 0 min 0 W/m 3,2 km/h (1 Bft) 93,62 %
28.05.2020 03:24 11,9 C 10,0 C 10,6 C 72 % 1033,6 hPa 0,0 l/m 0 min 0 min 0 W/m 6,4 km/h (2 Bft) 89,58 %
28.05.2020 03:26 11,9 C 10,0 C 10,6 C 72 % 1033,6 hPa 0,0 l/m 0 min 0 min 0 W/m 6,4 km/h (2 Bft) 93,62 %
28.05.2020 03:28 11,8 C 10,0 C 10,6 C 73 % 1033,7 hPa 0,0 l/m 0 min 0 min 0 W/m 0,0 km/h (0 Bft) 93,62 %
28.05.2020 03:30 11,8 C 10,0 C 10,6 C 73 % 1033,7 hPa 0,0 l/m 0 min 0 min 0 W/m 6,4 km/h (2 Bft) 93,62 %
28.05.2020 03:32 11,8 C 10,0 C 10,6 C 73 % 1033,7 hPa 0,0 l/m 0 min 0 min 0 W/m 6,4 km/h (2 Bft) 93,62 %
28.05.2020 03:34 11,7 C 10,0 C 10,6 C 73 % 1033,7 hPa 0,0 l/m 0 min 0 min 0 W/m 6,4 km/h (2 Bft) 93,48 %
28.05.2020 03:36 11,7 C 10,0 C 10,6 C 74 % 1033,7 hPa 0,0 l/m 0 min 0 min 0 W/m 3,2 km/h (1 Bft) 93,62 %
28.05.2020 03:38 11,6 C 10,0 C 10,6 C 74 % 1033,7 hPa 0,0 l/m 0 min 0 min 0 W/m 6,4 km/h (2 Bft) 93,62 %
28.05.2020 03:40 11,6 C 10,0 C 10,6 C 74 % 1033,7 hPa 0,0 l/m 0 min 0 min 0 W/m 3,2 km/h (1 Bft) 91,49 %
28.05.2020 03:42 11,6 C 10,0 C 10,6 C 74 % 1033,7 hPa 0,0 l/m 0 min 0 min 0 W/m 0,0 km/h (0 Bft) 95,83 %
28.05.2020 03:44 11,5 C 9,4 C 10,6 C 74 % 1033,6 hPa 0,0 l/m 0 min 0 min 0 W/m 3,2 km/h (1 Bft) 95,65 %
28.05.2020 03:46 11,5 C 10,0 C 10,6 C 75 % 1033,6 hPa 0,0 l/m 0 min 0 min 0 W/m 6,4 km/h (2 Bft) 93,62 %
28.05.2020 03:48 11,4 C 10,0 C 10,6 C 75 % 1033,7 hPa 0,0 l/m 0 min 0 min 0 W/m 3,2 km/h (1 Bft) 97,87 %
28.05.2020 03:50 11,4 C 9,4 C 10,6 C 75 % 1033,7 hPa 0,0 l/m 0 min 0 min 0 W/m 3,2 km/h (1 Bft) 97,87 %
28.05.2020 03:52 11,4 C 9,4 C 10,6 C 75 % 1033,7 hPa 0,0 l/m 0 min 0 min 0 W/m 3,2 km/h (1 Bft) 97,87 %
28.05.2020 03:54 11,3 C 9,4 C 10,6 C 76 % 1033,7 hPa 0,0 l/m 0 min 0 min 0 W/m 6,4 km/h (2 Bft) 97,87 %
28.05.2020 03:56 11,3 C 9,4 C 10,6 C 76 % 1033,7 hPa 0,0 l/m 0 min 0 min 0 W/m 3,2 km/h (1 Bft) 95,12 %
28.05.2020 03:58 11,2 C 9,4 C 10,6 C 76 % 1033,7 hPa 0,0 l/m 0 min 0 min 0 W/m 3,2 km/h (1 Bft) 97,87 %
28.05.2020 04:00 11,2 C 9,4 C 10,0 C 77 % 1033,7 hPa 0,0 l/m 0 min 0 min 0 W/m 0,0 km/h (0 Bft) 97,87 %
28.05.2020 04:02 11,2 C 9,4 C 10,0 C 77 % 1033,7 hPa 0,0 l/m 0 min 0 min 0 W/m 3,2 km/h (1 Bft) 91,67 %
28.05.2020 04:04 11,1 C 9,4 C 10,0 C 77 % 1033,7 hPa 0,0 l/m 0 min 0 min 0 W/m 0,0 km/h (0 Bft) 95,74 %
28.05.2020 04:06 11,1 C 9,4 C 10,0 C 77 % 1033,8 hPa 0,0 l/m 0 min 0 min 0 W/m 3,2 km/h (1 Bft) 97,87 %
28.05.2020 04:08 11,1 C 9,4 C 10,0 C 77 % 1033,7 hPa 0,0 l/m 0 min 0 min 0 W/m 3,2 km/h (1 Bft) 95,65 %
28.05.2020 04:10 11,1 C 9,4 C 10,0 C 77 % 1033,7 hPa 0,0 l/m 0 min 0 min 0 W/m 6,4 km/h (2 Bft) 97,87 %
28.05.2020 04:12 11,0 C 9,4 C 10,0 C 77 % 1033,7 hPa 0,0 l/m 0 min 0 min 0 W/m 0,0 km/h (0 Bft) 97,92 %
28.05.2020 04:14 10,9 C 9,4 C 10,0 C 78 % 1033,7 hPa 0,0 l/m 0 min 0 min 0 W/m 3,2 km/h (1 Bft) 97,87 %
28.05.2020 04:16 10,9 C 9,4 C 10,0 C 78 % 1033,7 hPa 0,0 l/m 0 min 0 min 0 W/m 0,0 km/h (0 Bft) 95,83 %
28.05.2020 04:18 10,9 C 9,4 C 10,0 C 78 % 1033,7 hPa 0,0 l/m 0 min 0 min 0 W/m 3,2 km/h (1 Bft) 97,87 %
28.05.2020 04:20 10,9 C 9,4 C 10,0 C 79 % 1033,7 hPa 0,0 l/m 0 min 0 min 0 W/m 3,2 km/h (1 Bft) 97,87 %
28.05.2020 04:22 10,8 C 9,4 C 10,0 C 79 % 1033,7 hPa 0,0 l/m 0 min 0 min 0 W/m 3,2 km/h (1 Bft) 100,00 %
28.05.2020 04:24 10,8 C 9,4 C 10,0 C 79 % 1033,7 hPa 0,0 l/m 0 min 0 min 0 W/m 3,2 km/h (1 Bft) 100,00 %
28.05.2020 04:26 10,8 C 9,4 C 10,0 C 79 % 1033,7 hPa 0,0 l/m 0 min 0 min 0 W/m 0,0 km/h (0 Bft) 97,87 %
28.05.2020 04:28 10,8 C 9,4 C 10,0 C 79 % 1033,7 hPa 0,0 l/m 0 min 0 min 0 W/m 6,4 km/h (2 Bft) 100,00 %
28.05.2020 04:30 10,7 C 9,4 C 10,0 C 79 % 1033,7 hPa 0,0 l/m 0 min 0 min 0 W/m 6,4 km/h (2 Bft) 100,00 %
28.05.2020 04:32 10,7 C 9,4 C 10,0 C 80 % 1033,8 hPa 0,0 l/m 0 min 0 min 0 W/m 3,2 km/h (1 Bft) 100,00 %
28.05.2020 04:34 10,7 C 9,4 C 9,4 C 79 % 1033,8 hPa 0,0 l/m 0 min 0 min 0 W/m 3,2 km/h (1 Bft) 100,00 %
28.05.2020 04:36 10,7 C 9,4 C 9,4 C 80 % 1033,8 hPa 0,0 l/m 0 min 0 min 0 W/m 0,0 km/h (0 Bft) 97,92 %
28.05.2020 04:38 10,6 C 9,4 C 10,0 C 80 % 1033,7 hPa 0,0 l/m 0 min 0 min 0 W/m 6,4 km/h (2 Bft) 100,00 %
28.05.2020 04:40 10,6 C 9,4 C 10,0 C 80 % 1033,7 hPa 0,0 l/m 0 min 0 min 0 W/m 3,2 km/h (1 Bft) 100,00 %
28.05.2020 04:42 10,6 C 8,9 C 10,0 C 81 % 1033,8 hPa 0,0 l/m 0 min 0 min 0 W/m 0,0 km/h (0 Bft) 100,00 %
28.05.2020 04:44 10,6 C 8,9 C 10,0 C 81 % 1033,8 hPa 0,0 l/m 0 min 0 min 0 W/m 3,2 km/h (1 Bft) 97,87 %
28.05.2020 04:46 10,5 C 8,9 C 10,0 C 81 % 1033,8 hPa 0,0 l/m 0 min 0 min 0 W/m 6,4 km/h (2 Bft) 100,00 %
28.05.2020 04:48 10,5 C 9,4 C 10,0 C 81 % 1033,8 hPa 0,0 l/m 0 min 0 min 0 W/m 3,2 km/h (1 Bft) 100,00 %
28.05.2020 04:50 10,5 C 8,9 C 10,0 C 81 % 1033,8 hPa 0,0 l/m 0 min 0 min 0 W/m 3,2 km/h (1 Bft) 100,00 %
28.05.2020 04:52 10,4 C 8,9 C 10,0 C 81 % 1033,8 hPa 0,0 l/m 0 min 0 min 0 W/m 6,4 km/h (2 Bft) 100,00 %
28.05.2020 04:54 10,4 C 9,4 C 10,0 C 81 % 1033,8 hPa 0,0 l/m 0 min 0 min 0 W/m 9,7 km/h (2 Bft) 97,83 %
28.05.2020 04:56 10,4 C 9,4 C 10,0 C 82 % 1033,8 hPa 0,0 l/m 0 min 0 min 0 W/m 3,2 km/h (1 Bft) 100,00 %
28.05.2020 04:58 10,4 C 9,4 C 10,0 C 82 % 1033,8 hPa 0,0 l/m 0 min 0 min 0 W/m 3,2 km/h (1 Bft) 100,00 %
28.05.2020 05:00 10,3 C 9,4 C 10,0 C 82 % 1033,8 hPa 0,0 l/m 0 min 0 min 0 W/m 6,4 km/h (2 Bft) 100,00 %
28.05.2020 05:02 10,3 C 9,4 C 10,0 C 82 % 1033,8 hPa 0,0 l/m 0 min 0 min 0 W/m 6,4 km/h (2 Bft) 100,00 %
28.05.2020 05:04 10,3 C 8,9 C 10,0 C 82 % 1033,8 hPa 0,0 l/m 0 min 0 min 0 W/m 3,2 km/h (1 Bft) 100,00 %
28.05.2020 05:06 10,3 C 9,4 C 10,0 C 82 % 1033,8 hPa 0,0 l/m 0 min 0 min 0 W/m 9,7 km/h (2 Bft) 100,00 %
28.05.2020 05:08 10,3 C 8,9 C 10,0 C 82 % 1033,9 hPa 0,0 l/m 0 min 0 min 0 W/m 3,2 km/h (1 Bft) 97,92 %
28.05.2020 05:10 10,3 C 8,9 C 9,4 C 82 % 1033,8 hPa 0,0 l/m 0 min 0 min 0 W/m 3,2 km/h (1 Bft) 97,87 %
28.05.2020 05:12 10,3 C 8,9 C 9,4 C 82 % 1033,9 hPa 0,0 l/m 0 min 0 min 0 W/m 3,2 km/h (1 Bft) 97,87 %
28.05.2020 05:14 10,2 C 8,9 C 9,4 C 82 % 1033,9 hPa 0,0 l/m 0 min 0 min 0 W/m 0,0 km/h (0 Bft) 97,87 %
28.05.2020 05:16 10,2 C 8,9 C 9,4 C 82 % 1033,9 hPa 0,0 l/m 0 min 0 min 0 W/m 0,0 km/h (0 Bft) 100,00 %
28.05.2020 05:18 10,2 C 8,9 C 9,4 C 82 % 1033,9 hPa 0,0 l/m 0 min 0 min 0 W/m 3,2 km/h (1 Bft) 97,87 %
28.05.2020 05:20 10,2 C 8,9 C 9,4 C 82 % 1033,9 hPa 0,0 l/m 0 min 0 min 0 W/m 0,0 km/h (0 Bft) 97,87 %
28.05.2020 05:22 10,2 C 8,9 C 9,4 C 82 % 1033,9 hPa 0,0 l/m 0 min 0 min 0 W/m 3,2 km/h (1 Bft) 97,87 %
28.05.2020 05:24 10,2 C 8,9 C 9,4 C 82 % 1033,9 hPa 0,0 l/m 0 min 0 min 0 W/m 6,4 km/h (2 Bft) 93,62 %
28.05.2020 05:26 10,1 C 8,9 C 9,4 C 82 % 1033,9 hPa 0,0 l/m 0 min 0 min 0 W/m 3,2 km/h (1 Bft) 95,74 %
28.05.2020 05:28 10,1 C 8,9 C 9,4 C 82 % 1033,9 hPa 0,0 l/m 0 min 0 min 0 W/m 6,4 km/h (2 Bft) 95,65 %
28.05.2020 05:30 10,1 C 8,9 C 9,4 C 83 % 1034,0 hPa 0,0 l/m 0 min 0 min 0 W/m 3,2 km/h (1 Bft) 97,87 %
28.05.2020 05:32 10,1 C 8,9 C 9,4 C 83 % 1034,0 hPa 0,0 l/m 0 min 0 min 2 W/m 0,0 km/h (0 Bft) 97,67 %
28.05.2020 05:34 10,1 C 8,3 C 9,4 C 83 % 1034,0 hPa 0,0 l/m 0 min 0 min 5 W/m 0,0 km/h (0 Bft) 95,74 %
28.05.2020 05:36 10,1 C 8,3 C 9,4 C 83 % 1034,0 hPa 0,0 l/m 0 min 0 min 5 W/m 3,2 km/h (1 Bft) 95,74 %
28.05.2020 05:38 10,0 C 8,3 C 9,4 C 83 % 1034,0 hPa 0,0 l/m 0 min 0 min 5 W/m 0,0 km/h (0 Bft) 97,87 %
28.05.2020 05:40 10,0 C 8,3 C 8,9 C 83 % 1034,1 hPa 0,0 l/m 0 min 0 min 7 W/m 3,2 km/h (1 Bft) 97,83 %
28.05.2020 05:42 9,9 C 8,3 C 8,9 C 83 % 1034,1 hPa 0,0 l/m 0 min 0 min 7 W/m 12,9 km/h (3 Bft) 97,87 %
28.05.2020 05:44 9,9 C 8,3 C 8,9 C 83 % 1034,1 hPa 0,0 l/m 0 min 0 min 7 W/m 0,0 km/h (0 Bft) 97,87 %
28.05.2020 05:46 9,9 C 8,3 C 8,9 C 83 % 1034,1 hPa 0,0 l/m 0 min 0 min 8 W/m 3,2 km/h (1 Bft) 95,74 %
28.05.2020 05:48 9,9 C 8,3 C 8,9 C 83 % 1034,2 hPa 0,0 l/m 0 min 0 min 9 W/m 3,2 km/h (1 Bft) 97,87 %
28.05.2020 05:50 9,9 C 8,3 C 8,9 C 83 % 1034,2 hPa 0,0 l/m 0 min 0 min 9 W/m 3,2 km/h (1 Bft) 97,87 %
28.05.2020 05:52 9,8 C 8,3 C 8,9 C 83 % 1034,2 hPa 0,0 l/m 0 min 0 min 9 W/m 0,0 km/h (0 Bft) 91,30 %
28.05.2020 05:54 9,8 C 8,3 C 8,9 C 84 % 1034,2 hPa 0,0 l/m 0 min 0 min 11 W/m 3,2 km/h (1 Bft) 100,00 %
28.05.2020 05:56 9,8 C 8,3 C 8,9 C 84 % 1034,2 hPa 0,0 l/m 0 min 0 min 11 W/m 3,2 km/h (1 Bft) 100,00 %
28.05.2020 05:58 9,8 C 8,3 C 8,9 C 84 % 1034,2 hPa 0,0 l/m 0 min 0 min 12 W/m 0,0 km/h (0 Bft) 100,00 %
28.05.2020 06:00 9,8 C 8,3 C 8,9 C 84 % 1034,3 hPa 0,0 l/m 0 min 0 min 12 W/m 6,4 km/h (2 Bft) 100,00 %
28.05.2020 06:02 9,8 C 8,3 C 8,9 C 84 % 1034,2 hPa 0,0 l/m 0 min 0 min 12 W/m 0,0 km/h (0 Bft) 97,87 %
28.05.2020 06:04 9,8 C 8,3 C 8,9 C 84 % 1034,3 hPa 0,0 l/m 0 min 0 min 12 W/m 0,0 km/h (0 Bft) 97,83 %
28.05.2020 06:08 9,7 C 8,3 C 8,9 C 84 % 1034,3 hPa 0,0 l/m 0 min 0 min 14 W/m 0,0 km/h (0 Bft) 97,87 %
28.05.2020 06:10 9,7 C 8,3 C 8,9 C 84 % 1034,3 hPa 0,0 l/m 0 min 0 min 14 W/m 3,2 km/h (1 Bft) 97,87 %
28.05.2020 06:12 9,7 C 8,3 C 8,9 C 85 % 1034,3 hPa 0,0 l/m 0 min 0 min 16 W/m 0,0 km/h (0 Bft) 95,74 %
28.05.2020 06:14 9,7 C 8,3 C 8,9 C 85 % 1034,3 hPa 0,0 l/m 0 min 0 min 16 W/m 0,0 km/h (0 Bft) 97,83 %
28.05.2020 06:16 9,7 C 8,3 C 8,9 C 85 % 1034,3 hPa 0,0 l/m 0 min 0 min 16 W/m 3,2 km/h (1 Bft) 95,74 %
28.05.2020 06:18 9,7 C 8,3 C 8,9 C 85 % 1034,2 hPa 0,0 l/m 0 min 0 min 17 W/m 0,0 km/h (0 Bft) 97,87 %
28.05.2020 06:20 9,7 C 8,3 C 8,9 C 85 % 1034,2 hPa 0,0 l/m 0 min 0 min 18 W/m 0,0 km/h (0 Bft) 97,62 %
28.05.2020 06:22 9,7 C 8,9 C 8,9 C 85 % 1034,2 hPa 0,0 l/m 0 min 0 min 18 W/m 3,2 km/h (1 Bft) 95,74 %
28.05.2020 06:24 9,7 C 8,9 C 8,9 C 85 % 1034,2 hPa 0,0 l/m 0 min 0 min 18 W/m 0,0 km/h (0 Bft) 97,92 %
28.05.2020 06:26 9,6 C 8,9 C 8,9 C 85 % 1034,2 hPa 0,0 l/m 0 min 0 min 19 W/m 0,0 km/h (0 Bft) 97,83 %
28.05.2020 06:28 9,6 C 8,9 C 8,9 C 85 % 1034,2 hPa 0,0 l/m 0 min 0 min 19 W/m 6,4 km/h (2 Bft) 97,87 %
28.05.2020 06:30 9,6 C 8,9 C 8,9 C 85 % 1034,2 hPa 0,0 l/m 0 min 0 min 19 W/m 0,0 km/h (0 Bft) 97,92 %
28.05.2020 06:32 9,6 C 8,9 C 8,9 C 86 % 1034,3 hPa 0,0 l/m 0 min 0 min 20 W/m 3,2 km/h (1 Bft) 97,87 %
28.05.2020 06:34 9,6 C 8,9 C 8,9 C 86 % 1034,3 hPa 0,0 l/m 0 min 0 min 21 W/m 0,0 km/h (0 Bft) 95,74 %
28.05.2020 06:36 9,6 C 8,9 C 8,9 C 86 % 1034,3 hPa 0,0 l/m 0 min 0 min 21 W/m 3,2 km/h (1 Bft) 95,74 %
28.05.2020 06:38 9,6 C 8,9 C 8,9 C 86 % 1034,2 hPa 0,0 l/m 0 min 0 min 21 W/m 3,2 km/h (1 Bft) 97,83 %
28.05.2020 06:40 9,6 C 8,9 C 9,4 C 86 % 1034,2 hPa 0,0 l/m 0 min 0 min 22 W/m 3,2 km/h (1 Bft) 97,87 %
28.05.2020 06:42 9,6 C 8,9 C 8,9 C 86 % 1034,3 hPa 0,0 l/m 0 min 0 min 23 W/m 0,0 km/h (0 Bft) 97,87 %
28.05.2020 06:44 9,6 C 9,4 C 9,4 C 86 % 1034,2 hPa 0,0 l/m 0 min 0 min 23 W/m 0,0 km/h (0 Bft) 97,87 %
28.05.2020 06:46 9,6 C 9,4 C 9,4 C 86 % 1034,3 hPa 0,0 l/m 0 min 0 min 24 W/m 0,0 km/h (0 Bft) 97,87 %
28.05.2020 06:48 9,7 C 9,4 C 9,4 C 87 % 1034,3 hPa 0,0 l/m 0 min 0 min 25 W/m 3,2 km/h (1 Bft) 97,87 %
28.05.2020 06:50 9,7 C 9,4 C 9,4 C 87 % 1034,3 hPa 0,0 l/m 0 min 0 min 25 W/m 3,2 km/h (1 Bft) 97,83 %
28.05.2020 06:52 9,7 C 9,4 C 9,4 C 87 % 1034,3 hPa 0,0 l/m 0 min 0 min 25 W/m 3,2 km/h (1 Bft) 95,74 %
28.05.2020 06:54 9,7 C 9,4 C 9,4 C 87 % 1034,3 hPa 0,0 l/m 0 min 0 min 26 W/m 3,2 km/h (1 Bft) 97,87 %
28.05.2020 06:56 9,7 C 9,4 C 9,4 C 87 % 1034,3 hPa 0,0 l/m 0 min 0 min 26 W/m 12,9 km/h (3 Bft) 100,00 %
28.05.2020 06:58 9,7 C 9,4 C 9,4 C 87 % 1034,4 hPa 0,0 l/m 0 min 0 min 26 W/m 3,2 km/h (1 Bft) 100,00 %
28.05.2020 07:00 9,8 C 9,4 C 9,4 C 87 % 1034,3 hPa 0,0 l/m 0 min 0 min 28 W/m 3,2 km/h (1 Bft) 100,00 %
28.05.2020 07:02 9,8 C 9,4 C 9,4 C 87 % 1034,3 hPa 0,0 l/m 0 min 0 min 28 W/m 6,4 km/h (2 Bft) 100,00 %
28.05.2020 07:04 9,8 C 10,0 C 9,4 C 88 % 1034,3 hPa 0,0 l/m 0 min 0 min 29 W/m 0,0 km/h (0 Bft) 97,87 %
28.05.2020 07:06 9,9 C 10,0 C 9,4 C 88 % 1034,3 hPa 0,0 l/m 0 min 0 min 30 W/m 3,2 km/h (1 Bft) 100,00 %
28.05.2020 07:08 9,9 C 10,0 C 9,4 C 88 % 1034,4 hPa 0,0 l/m 0 min 0 min 30 W/m 3,2 km/h (1 Bft) 97,92 %
28.05.2020 07:10 9,9 C 10,0 C 9,4 C 88 % 1034,4 hPa 0,0 l/m 0 min 0 min 31 W/m 3,2 km/h (1 Bft) 100,00 %
28.05.2020 07:12 9,9 C 10,0 C 9,4 C 88 % 1034,4 hPa 0,0 l/m 0 min 0 min 32 W/m 6,4 km/h (2 Bft) 97,83 %
28.05.2020 07:14 9,9 C 10,0 C 9,4 C 88 % 1034,4 hPa 0,0 l/m 0 min 0 min 33 W/m 3,2 km/h (1 Bft) 100,00 %
28.05.2020 07:16 10,0 C 10,0 C 10,0 C 88 % 1034,3 hPa 0,0 l/m 0 min 0 min 33 W/m 6,4 km/h (2 Bft) 100,00 %
28.05.2020 07:18 10,0 C 10,0 C 10,0 C 88 % 1034,3 hPa 0,0 l/m 0 min 0 min 33 W/m 0,0 km/h (0 Bft) 97,87 %
28.05.2020 07:20 10,1 C 10,0 C 10,0 C 88 % 1034,3 hPa 0,0 l/m 0 min 0 min 35 W/m 3,2 km/h (1 Bft) 97,87 %
28.05.2020 07:22 10,1 C 10,0 C 9,4 C 88 % 1034,3 hPa 0,0 l/m 0 min 0 min 35 W/m 0,0 km/h (0 Bft) 97,87 %
28.05.2020 07:24 10,1 C 10,0 C 10,0 C 88 % 1034,3 hPa 0,0 l/m 0 min 0 min 36 W/m 9,7 km/h (2 Bft) 100,00 %
28.05.2020 07:26 10,1 C 10,0 C 10,0 C 88 % 1034,2 hPa 0,0 l/m 0 min 0 min 37 W/m 6,4 km/h (2 Bft) 97,87 %
28.05.2020 07:28 10,2 C 10,0 C 10,0 C 88 % 1034,3 hPa 0,0 l/m 0 min 0 min 37 W/m 6,4 km/h (2 Bft) 97,87 %
28.05.2020 07:30 10,2 C 10,6 C 10,0 C 88 % 1034,3 hPa 0,0 l/m 0 min 0 min 37 W/m 9,7 km/h (2 Bft) 97,87 %
28.05.2020 07:32 10,2 C 10,6 C 10,0 C 88 % 1034,3 hPa 0,0 l/m 0 min 0 min 39 W/m 9,7 km/h (2 Bft) 93,62 %
28.05.2020 07:34 10,2 C 10,6 C 10,0 C 87 % 1034,2 hPa 0,0 l/m 0 min 0 min 39 W/m 12,9 km/h (3 Bft) 95,74 %
28.05.2020 07:36 10,3 C 10,6 C 10,0 C 87 % 1034,3 hPa 0,0 l/m 0 min 0 min 39 W/m 3,2 km/h (1 Bft) 93,48 %
28.05.2020 07:38 10,3 C 10,6 C 10,0 C 87 % 1034,3 hPa 0,0 l/m 0 min 0 min 40 W/m 6,4 km/h (2 Bft) 95,74 %
28.05.2020 07:40 10,3 C 10,6 C 10,0 C 87 % 1034,3 hPa 0,0 l/m 0 min 0 min 40 W/m 9,7 km/h (2 Bft) 95,74 %
28.05.2020 07:42 10,4 C 10,6 C 10,0 C 87 % 1034,3 hPa 0,0 l/m 0 min 0 min 40 W/m 6,4 km/h (2 Bft) 93,62 %
28.05.2020 07:44 10,4 C 10,6 C 10,0 C 87 % 1034,3 hPa 0,0 l/m 0 min 0 min 41 W/m 6,4 km/h (2 Bft) 95,74 %
28.05.2020 07:46 10,5 C 10,6 C 10,0 C 87 % 1034,3 hPa 0,0 l/m 0 min 0 min 42 W/m 9,7 km/h (2 Bft) 95,65 %
28.05.2020 07:48 10,6 C 10,6 C 10,6 C 86 % 1034,3 hPa 0,0 l/m 0 min 0 min 42 W/m 6,4 km/h (2 Bft) 95,74 %
28.05.2020 07:50 10,6 C 11,1 C 10,6 C 86 % 1034,3 hPa 0,0 l/m 0 min 0 min 42 W/m 6,4 km/h (2 Bft) 95,83 %
28.05.2020 07:52 10,6 C 11,1 C 10,6 C 86 % 1034,4 hPa 0,0 l/m 0 min 0 min 44 W/m 16,1 km/h (3 Bft) 91,49 %
28.05.2020 07:54 10,7 C 11,1 C 10,6 C 86 % 1034,4 hPa 0,0 l/m 0 min 0 min 44 W/m 6,4 km/h (2 Bft) 95,83 %
28.05.2020 07:56 10,7 C 11,1 C 10,6 C 86 % 1034,4 hPa 0,0 l/m 0 min 0 min 45 W/m 6,4 km/h (2 Bft) 95,74 %
28.05.2020 07:58 10,8 C 11,1 C 10,6 C 85 % 1034,4 hPa 0,0 l/m 0 min 0 min 46 W/m 19,3 km/h (3 Bft) 95,65 %
28.05.2020 08:00 10,8 C 11,7 C 10,6 C 85 % 1034,4 hPa 0,0 l/m 0 min 0 min 46 W/m 3,2 km/h (1 Bft) 43,24 %
28.05.2020 08:02 10,9 C 13,3 C 10,6 C 85 % 1034,4 hPa 0,0 l/m 0 min 0 min 46 W/m 6,4 km/h (2 Bft) 93,62 %
28.05.2020 08:04 10,9 C 14,4 C 10,6 C 85 % 1034,4 hPa 0,0 l/m 0 min 0 min 47 W/m 9,7 km/h (2 Bft) 95,74 %
28.05.2020 08:06 11,0 C 15,6 C 10,6 C 85 % 1034,4 hPa 0,0 l/m 0 min 0 min 47 W/m 9,7 km/h (2 Bft) 95,74 %
28.05.2020 08:08 11,1 C 16,1 C 10,6 C 84 % 1034,4 hPa 0,0 l/m 0 min 0 min 47 W/m 6,4 km/h (2 Bft) 95,74 %
28.05.2020 08:10 11,2 C 16,1 C 11,1 C 84 % 1034,4 hPa 0,0 l/m 0 min 0 min 49 W/m 6,4 km/h (2 Bft) 95,65 %
28.05.2020 08:12 11,3 C 16,7 C 11,1 C 84 % 1034,4 hPa 0,0 l/m 0 min 0 min 49 W/m 9,7 km/h (2 Bft) 93,62 %
28.05.2020 08:14 11,4 C 16,7 C 11,1 C 84 % 1034,4 hPa 0,0 l/m 0 min 0 min 49 W/m 12,9 km/h (3 Bft) 95,74 %
28.05.2020 08:16 11,6 C 16,7 C 11,1 C 83 % 1034,4 hPa 0,0 l/m 0 min 0 min 49 W/m 12,9 km/h (3 Bft) 97,87 %
28.05.2020 08:18 11,8 C 17,2 C 11,1 C 83 % 1034,4 hPa 0,0 l/m 0 min 0 min 51 W/m 12,9 km/h (3 Bft) 95,74 %
28.05.2020 08:20 12,0 C 17,8 C 11,7 C 82 % 1034,4 hPa 0,0 l/m 0 min 0 min 51 W/m 6,4 km/h (2 Bft) 97,87 %
28.05.2020 08:22 12,2 C 17,8 C 11,7 C 82 % 1034,4 hPa 0,0 l/m 0 min 0 min 51 W/m 6,4 km/h (2 Bft) 97,83 %
28.05.2020 08:24 12,3 C 17,2 C 11,7 C 81 % 1034,5 hPa 0,0 l/m 0 min 0 min 51 W/m 12,9 km/h (3 Bft) 100,00 %
28.05.2020 08:26 12,5 C 17,8 C 12,2 C 79 % 1034,4 hPa 0,0 l/m 0 min 0 min 51 W/m 9,7 km/h (2 Bft) 100,00 %
28.05.2020 08:28 12,7 C 17,8 C 12,2 C 79 % 1034,5 hPa 0,0 l/m 0 min 0 min 52 W/m 9,7 km/h (2 Bft) 97,87 %
28.05.2020 08:30 12,8 C 17,8 C 13,9 C 78 % 1034,5 hPa 0,0 l/m 0 min 0 min 53 W/m 12,9 km/h (3 Bft) 100,00 %
28.05.2020 08:32 13,0 C 18,3 C 17,8 C 77 % 1034,5 hPa 0,0 l/m 0 min 0 min 53 W/m 6,4 km/h (2 Bft) 100,00 %
28.05.2020 08:34 13,2 C 18,9 C 20,6 C 77 % 1034,4 hPa 0,0 l/m 0 min 0 min 53 W/m 6,4 km/h (2 Bft) 100,00 %
28.05.2020 08:36 13,3 C 18,9 C 22,8 C 77 % 1034,4 hPa 0,0 l/m 0 min 0 min 54 W/m 12,9 km/h (3 Bft) 100,00 %
28.05.2020 08:38 13,6 C 18,9 C 24,4 C 76 % 1034,4 hPa 0,0 l/m 0 min 0 min 54 W/m 9,7 km/h (2 Bft) 95,74 %
28.05.2020 08:40 13,7 C 19,4 C 25,6 C 76 % 1034,4 hPa 0,0 l/m 0 min 0 min 55 W/m 9,7 km/h (2 Bft) 97,87 %
28.05.2020 08:42 13,9 C 18,9 C 26,1 C 75 % 1034,4 hPa 0,0 l/m 0 min 0 min 60 W/m 19,3 km/h (3 Bft) 97,87 %
28.05.2020 08:44 14,1 C 18,9 C 26,7 C 73 % 1034,4 hPa 0,0 l/m 0 min 0 min 69 W/m 12,9 km/h (3 Bft) 97,87 %
28.05.2020 08:46 14,3 C 18,9 C 26,7 C 73 % 1034,4 hPa 0,0 l/m 0 min 0 min 84 W/m 9,7 km/h (2 Bft) 95,65 %
28.05.2020 08:48 14,3 C 18,9 C 27,2 C 72 % 1034,4 hPa 0,0 l/m 0 min 0 min 105 W/m 16,1 km/h (3 Bft) 97,87 %
28.05.2020 08:50 14,4 C 18,9 C 27,2 C 72 % 1034,4 hPa 0,0 l/m 0 min 0 min 132 W/m 12,9 km/h (3 Bft) 97,87 %
28.05.2020 08:52 14,6 C 18,9 C 27,2 C 71 % 1034,4 hPa 0,0 l/m 0 min 0 min 169 W/m 9,7 km/h (2 Bft) 93,62 %
28.05.2020 08:54 14,7 C 18,9 C 26,7 C 70 % 1034,4 hPa 0,0 l/m 0 min 0 min 206 W/m 12,9 km/h (3 Bft) 95,74 %
28.05.2020 08:56 14,8 C 19,4 C 27,8 C 71 % 1034,3 hPa 0,0 l/m 2 min 0 min 244 W/m 9,7 km/h (2 Bft) 97,87 %
28.05.2020 08:58 14,9 C 20,0 C 27,8 C 70 % 1034,4 hPa 0,0 l/m 2 min 0 min 299 W/m 6,4 km/h (2 Bft) 97,83 %
28.05.2020 09:00 15,1 C 20,0 C 27,8 C 70 % 1034,4 hPa 0,0 l/m 2 min 0 min 351 W/m 6,4 km/h (2 Bft) 97,87 %
28.05.2020 09:02 15,2 C 19,4 C 26,7 C 68 % 1034,4 hPa 0,0 l/m 2 min 0 min 394 W/m 12,9 km/h (3 Bft) 95,74 %
28.05.2020 09:04 15,3 C 18,9 C 25,6 C 67 % 1034,4 hPa 0,0 l/m 2 min 0 min 432 W/m 9,7 km/h (2 Bft) 93,62 %
28.05.2020 09:06 15,3 C 18,9 C 26,1 C 67 % 1034,4 hPa 0,0 l/m 2 min 0 min 468 W/m 9,7 km/h (2 Bft) 95,74 %
28.05.2020 09:08 15,4 C 19,4 C 26,1 C 67 % 1034,4 hPa 0,0 l/m 2 min 0 min 496 W/m 12,9 km/h (3 Bft) 97,87 %
28.05.2020 09:10 15,5 C 20,0 C 26,7 C 67 % 1034,4 hPa 0,0 l/m 2 min 0 min 518 W/m 6,4 km/h (2 Bft) 95,65 %
28.05.2020 09:12 15,6 C 20,0 C 26,1 C 66 % 1034,4 hPa 0,0 l/m 2 min 0 min 533 W/m 9,7 km/h (2 Bft) 97,87 %
28.05.2020 09:14 15,7 C 20,6 C 26,7 C 67 % 1034,4 hPa 0,0 l/m 2 min 0 min 540 W/m 3,2 km/h (1 Bft) 97,87 %
28.05.2020 09:16 15,8 C 20,6 C 26,1 C 66 % 1034,4 hPa 0,0 l/m 2 min 0 min 547 W/m 9,7 km/h (2 Bft) 97,87 %
28.05.2020 09:18 15,9 C 20,6 C 26,1 C 65 % 1034,4 hPa 0,0 l/m 2 min 0 min 552 W/m 9,7 km/h (2 Bft) 97,87 %
28.05.2020 09:20 16,0 C 20,6 C 26,1 C 65 % 1034,4 hPa 0,0 l/m 2 min 0 min 558 W/m 9,7 km/h (2 Bft) 100,00 %
28.05.2020 09:22 16,1 C 20,6 C 26,1 C 65 % 1034,4 hPa 0,0 l/m 2 min 0 min 564 W/m 19,3 km/h (3 Bft) 100,00 %
28.05.2020 09:24 16,2 C 21,1 C 26,1 C 66 % 1034,4 hPa 0,0 l/m 2 min 0 min 571 W/m 9,7 km/h (2 Bft) 100,00 %
28.05.2020 09:26 16,3 C 21,1 C 25,6 C 66 % 1034,5 hPa 0,0 l/m 2 min 0 min 574 W/m 12,9 km/h (3 Bft) 100,00 %
28.05.2020 09:28 16,4 C 20,6 C 25,0 C 65 % 1034,5 hPa 0,0 l/m 2 min 0 min 581 W/m 9,7 km/h (2 Bft) 97,87 %
28.05.2020 09:30 16,6 C 21,1 C 25,6 C 64 % 1034,4 hPa 0,0 l/m 2 min 0 min 587 W/m 12,9 km/h (3 Bft) 100,00 %
28.05.2020 09:32 16,7 C 21,7 C 25,6 C 64 % 1034,4 hPa 0,0 l/m 2 min 0 min 594 W/m 6,4 km/h (2 Bft) 100,00 %
28.05.2020 09:34 16,7 C 21,7 C 25,6 C 64 % 1034,4 hPa 0,0 l/m 2 min 0 min 600 W/m 6,4 km/h (2 Bft) 100,00 %
28.05.2020 09:36 16,8 C 21,7 C 25,0 C 63 % 1034,4 hPa 0,0 l/m 2 min 0 min 603 W/m 6,4 km/h (2 Bft) 100,00 %
28.05.2020 09:38 16,9 C 21,7 C 25,6 C 63 % 1034,4 hPa 0,0 l/m 2 min 0 min 609 W/m 6,4 km/h (2 Bft) 100,00 %
28.05.2020 09:40 17,0 C 21,7 C 25,6 C 61 % 1034,4 hPa 0,0 l/m 2 min 0 min 620 W/m 12,9 km/h (3 Bft) 100,00 %
28.05.2020 09:42 17,1 C 21,7 C 24,4 C 61 % 1034,4 hPa 0,0 l/m 2 min 0 min 625 W/m 9,7 km/h (2 Bft) 100,00 %
28.05.2020 09:44 17,1 C 21,7 C 25,0 C 62 % 1034,3 hPa 0,0 l/m 2 min 0 min 631 W/m 6,4 km/h (2 Bft) 100,00 %
28.05.2020 09:46 17,2 C 21,7 C 25,0 C 62 % 1034,3 hPa 0,0 l/m 2 min 0 min 638 W/m 9,7 km/h (2 Bft) 100,00 %
28.05.2020 09:48 17,3 C 22,2 C 25,6 C 61 % 1034,3 hPa 0,0 l/m 2 min 0 min 643 W/m 6,4 km/h (2 Bft) 100,00 %
28.05.2020 09:50 17,4 C 21,7 C 26,1 C 61 % 1034,3 hPa 0,0 l/m 2 min 0 min 648 W/m 6,4 km/h (2 Bft) 100,00 %
28.05.2020 09:52 17,5 C 21,7 C 26,1 C 60 % 1034,4 hPa 0,0 l/m 2 min 0 min 653 W/m 9,7 km/h (2 Bft) 100,00 %
28.05.2020 09:54 17,6 C 21,7 C 25,6 C 60 % 1034,4 hPa 0,0 l/m 2 min 0 min 658 W/m 9,7 km/h (2 Bft) 100,00 %
28.05.2020 09:56 17,7 C 22,2 C 26,7 C 60 % 1034,4 hPa 0,0 l/m 2 min 0 min 664 W/m 3,2 km/h (1 Bft) 100,00 %
28.05.2020 09:58 17,8 C 22,8 C 26,7 C 61 % 1034,3 hPa 0,0 l/m 2 min 0 min 668 W/m 6,4 km/h (2 Bft) 100,00 %
28.05.2020 10:00 17,9 C 22,8 C 26,7 C 61 % 1034,3 hPa 0,0 l/m 2 min 0 min 672 W/m 6,4 km/h (2 Bft) 100,00 %
28.05.2020 10:02 17,9 C 22,2 C 26,1 C 59 % 1034,3 hPa 0,0 l/m 2 min 0 min 678 W/m 9,7 km/h (2 Bft) 96,23 %
28.05.2020 10:04 18,0 C 22,8 C 26,1 C 59 % 1034,3 hPa 0,0 l/m 2 min 0 min 686 W/m 9,7 km/h (2 Bft) 100,00 %
28.05.2020 10:06 18,1 C 23,3 C 27,2 C 61 % 1034,3 hPa 0,0 l/m 2 min 0 min 688 W/m 3,2 km/h (1 Bft) 100,00 %
28.05.2020 10:08 18,2 C 23,9 C 27,2 C 62 % 1034,3 hPa 0,0 l/m 2 min 0 min 693 W/m 9,7 km/h (2 Bft) 100,00 %
28.05.2020 10:10 18,3 C 23,3 C 27,2 C 60 % 1034,2 hPa 0,0 l/m 2 min 0 min 698 W/m 9,7 km/h (2 Bft) 100,00 %
28.05.2020 10:12 18,4 C 23,3 C 26,7 C 59 % 1034,3 hPa 0,0 l/m 2 min 0 min 702 W/m 9,7 km/h (2 Bft) 100,00 %
28.05.2020 10:14 18,4 C 23,3 C 27,2 C 61 % 1034,3 hPa 0,0 l/m 2 min 0 min 705 W/m 6,4 km/h (2 Bft) 100,00 %
28.05.2020 10:16 18,5 C 23,3 C 26,7 C 59 % 1034,3 hPa 0,0 l/m 2 min 0 min 710 W/m 3,2 km/h (1 Bft) 100,00 %
28.05.2020 10:18 18,5 C 22,8 C 26,1 C 58 % 1034,2 hPa 0,0 l/m 2 min 0 min 714 W/m 16,1 km/h (3 Bft) 100,00 %
28.05.2020 10:20 18,6 C 22,8 C 26,1 C 59 % 1034,3 hPa 0,0 l/m 2 min 0 min 717 W/m 9,7 km/h (2 Bft) 97,83 %
28.05.2020 10:22 18,6 C 23,9 C 26,1 C 59 % 1034,3 hPa 0,0 l/m 2 min 0 min 725 W/m 6,4 km/h (2 Bft) 97,87 %
28.05.2020 10:24 18,7 C 23,9 C 27,2 C 59 % 1034,2 hPa 0,0 l/m 2 min 0 min 728 W/m 6,4 km/h (2 Bft) 100,00 %
28.05.2020 10:26 18,8 C 23,9 C 27,2 C 60 % 1034,2 hPa 0,0 l/m 2 min 0 min 735 W/m 3,2 km/h (1 Bft) 100,00 %
28.05.2020 10:28 18,9 C 23,3 C 27,2 C 59 % 1034,3 hPa 0,0 l/m 2 min 0 min 738 W/m 9,7 km/h (2 Bft) 100,00 %
28.05.2020 10:30 18,9 C 23,3 C 26,7 C 59 % 1034,2 hPa 0,0 l/m 2 min 0 min 743 W/m 9,7 km/h (2 Bft) 100,00 %
28.05.2020 10:32 19,0 C 23,3 C 26,7 C 59 % 1034,3 hPa 0,0 l/m 2 min 0 min 745 W/m 6,4 km/h (2 Bft) 97,92 %
28.05.2020 10:34 19,1 C 23,3 C 26,7 C 58 % 1034,3 hPa 0,0 l/m 2 min 0 min 746 W/m 9,7 km/h (2 Bft) 97,87 %
28.05.2020 10:36 19,1 C 23,3 C 26,7 C 57 % 1034,2 hPa 0,0 l/m 2 min 0 min 753 W/m 12,9 km/h (3 Bft) 97,87 %
28.05.2020 10:38 19,1 C 23,9 C 26,1 C 57 % 1034,2 hPa 0,0 l/m 2 min 0 min 765 W/m 9,7 km/h (2 Bft) 97,87 %
28.05.2020 10:40 19,2 C 24,4 C 25,6 C 57 % 1034,2 hPa 0,0 l/m 2 min 0 min 767 W/m 12,9 km/h (3 Bft) 97,87 %
28.05.2020 10:42 19,2 C 23,9 C 25,0 C 57 % 1034,2 hPa 0,0 l/m 2 min 0 min 762 W/m 9,7 km/h (2 Bft) 97,83 %
28.05.2020 10:44 19,3 C 24,4 C 25,6 C 57 % 1034,2 hPa 0,0 l/m 2 min 0 min 768 W/m 3,2 km/h (1 Bft) 97,87 %
28.05.2020 10:46 19,3 C 24,4 C 25,0 C 57 % 1034,1 hPa 0,0 l/m 2 min 0 min 778 W/m 6,4 km/h (2 Bft) 95,74 %
28.05.2020 10:48 19,4 C 24,4 C 24,4 C 57 % 1034,2 hPa 0,0 l/m 2 min 0 min 784 W/m 19,3 km/h (3 Bft) 95,74 %
28.05.2020 10:50 19,5 C 24,4 C 25,0 C 56 % 1034,2 hPa 0,0 l/m 2 min 0 min 794 W/m 3,2 km/h (1 Bft) 97,87 %
28.05.2020 10:52 19,6 C 25,0 C 25,6 C 56 % 1034,1 hPa 0,0 l/m 2 min 0 min 795 W/m 3,2 km/h (1 Bft) 97,92 %
28.05.2020 10:54 19,6 C 25,0 C 24,4 C 56 % 1034,1 hPa 0,0 l/m 2 min 0 min 802 W/m 6,4 km/h (2 Bft) 97,83 %
28.05.2020 10:56 19,7 C 23,9 C 23,9 C 54 % 1034,1 hPa 0,0 l/m 2 min 0 min 807 W/m 9,7 km/h (2 Bft) 97,87 %
28.05.2020 10:59 19,7 C 23,9 C 23,3 C 55 % 1034,1 hPa 0,0 l/m 3 min 0 min 807 W/m 19,3 km/h (3 Bft) 98,57 %
28.05.2020 11:00 19,7 C 23,9 C 23,3 C 56 % 1034,1 hPa 0,0 l/m 1 min 0 min 805 W/m 6,4 km/h (2 Bft) 95,83 %
28.05.2020 11:02 19,8 C 24,4 C 23,3 C 57 % 1034,2 hPa 0,0 l/m 2 min 0 min 815 W/m 12,9 km/h (3 Bft) 97,62 %
28.05.2020 11:04 19,8 C 24,4 C 23,3 C 56 % 1034,1 hPa 0,0 l/m 2 min 0 min 823 W/m 6,4 km/h (2 Bft) 100,00 %
28.05.2020 11:06 19,8 C 23,9 C 23,3 C 56 % 1034,1 hPa 0,0 l/m 2 min 0 min 817 W/m 12,9 km/h (3 Bft) 95,74 %
28.05.2020 11:08 19,9 C 24,4 C 23,3 C 56 % 1034,0 hPa 0,0 l/m 2 min 0 min 828 W/m 9,7 km/h (2 Bft) 97,87 %
28.05.2020 11:10 19,9 C 24,4 C 23,3 C 56 % 1034,0 hPa 0,0 l/m 2 min 0 min 836 W/m 6,4 km/h (2 Bft) 97,87 %
28.05.2020 11:12 20,1 C 25,6 C 22,8 C 57 % 1034,0 hPa 0,0 l/m 2 min 0 min 841 W/m 6,4 km/h (2 Bft) 93,75 %
28.05.2020 11:14 20,1 C 25,0 C 22,8 C 54 % 1034,0 hPa 0,0 l/m 2 min 0 min 842 W/m 9,7 km/h (2 Bft) 95,74 %
28.05.2020 11:16 20,2 C 25,0 C 22,2 C 54 % 1034,0 hPa 0,0 l/m 2 min 0 min 842 W/m 9,7 km/h (2 Bft) 95,65 %
28.05.2020 11:18 20,2 C 25,0 C 22,2 C 55 % 1034,0 hPa 0,0 l/m 2 min 0 min 844 W/m 6,4 km/h (2 Bft) 93,62 %
28.05.2020 11:20 20,2 C 25,0 C 21,7 C 55 % 1034,0 hPa 0,0 l/m 2 min 0 min 849 W/m 6,4 km/h (2 Bft) 95,74 %
28.05.2020 11:22 20,3 C 25,0 C 21,7 C 53 % 1034,0 hPa 0,0 l/m 2 min 0 min 852 W/m 9,7 km/h (2 Bft) 96,00 %
28.05.2020 11:24 20,3 C 25,0 C 21,1 C 55 % 1033,9 hPa 0,0 l/m 2 min 0 min 856 W/m 12,9 km/h (3 Bft) 95,74 %
28.05.2020 11:26 20,4 C 25,0 C 21,1 C 54 % 1034,0 hPa 0,0 l/m 2 min 0 min 864 W/m 12,9 km/h (3 Bft) 95,74 %
28.05.2020 11:28 20,4 C 25,0 C 21,1 C 53 % 1033,9 hPa 0,0 l/m 2 min 0 min 866 W/m 9,7 km/h (2 Bft) 95,65 %
28.05.2020 11:30 20,4 C 24,4 C 20,6 C 53 % 1033,8 hPa 0,0 l/m 2 min 0 min 870 W/m 16,1 km/h (3 Bft) 97,87 %
28.05.2020 11:32 20,5 C 26,1 C 20,0 C 57 % 1033,8 hPa 0,0 l/m 2 min 0 min 879 W/m 9,7 km/h (2 Bft) 97,87 %
28.05.2020 11:34 20,6 C 26,1 C 20,6 C 55 % 1033,8 hPa 0,0 l/m 2 min 0 min 875 W/m 9,7 km/h (2 Bft) 95,74 %
28.05.2020 11:36 20,7 C 25,6 C 21,1 C 54 % 1033,7 hPa 0,0 l/m 2 min 0 min 883 W/m 6,4 km/h (2 Bft) 97,87 %
28.05.2020 11:38 20,7 C 26,1 C 21,1 C 55 % 1033,8 hPa 0,0 l/m 2 min 0 min 885 W/m 3,2 km/h (1 Bft) 97,83 %
28.05.2020 11:40 20,8 C 26,1 C 21,1 C 55 % 1033,8 hPa 0,0 l/m 2 min 0 min 887 W/m 9,7 km/h (2 Bft) 97,87 %
28.05.2020 11:42 20,9 C 26,1 C 21,1 C 53 % 1033,7 hPa 0,0 l/m 2 min 0 min 895 W/m 6,4 km/h (2 Bft) 95,74 %
28.05.2020 11:44 20,9 C 26,1 C 21,7 C 55 % 1033,7 hPa 0,0 l/m 2 min 0 min 896 W/m 12,9 km/h (3 Bft) 97,87 %
28.05.2020 11:46 21,0 C 26,1 C 21,7 C 53 % 1033,7 hPa 0,0 l/m 2 min 0 min 900 W/m 9,7 km/h (2 Bft) 95,74 %
28.05.2020 11:48 21,1 C 26,1 C 21,7 C 53 % 1033,7 hPa 0,0 l/m 2 min 0 min 896 W/m 6,4 km/h (2 Bft) 97,87 %
28.05.2020 11:50 21,1 C 26,1 C 22,2 C 53 % 1033,6 hPa 0,0 l/m 2 min 0 min 905 W/m 9,7 km/h (2 Bft) 97,83 %
28.05.2020 11:52 21,2 C 26,7 C 22,2 C 54 % 1033,7 hPa 0,0 l/m 2 min 0 min 909 W/m 6,4 km/h (2 Bft) 97,87 %
28.05.2020 11:54 21,2 C 26,7 C 22,2 C 54 % 1033,7 hPa 0,0 l/m 2 min 0 min 912 W/m 9,7 km/h (2 Bft) 100,00 %
28.05.2020 11:56 21,3 C 26,1 C 22,2 C 52 % 1033,7 hPa 0,0 l/m 2 min 0 min 913 W/m 12,9 km/h (3 Bft) 100,00 %
28.05.2020 11:58 21,3 C 26,1 C 22,2 C 53 % 1033,6 hPa 0,0 l/m 2 min 0 min 914 W/m 9,7 km/h (2 Bft) 100,00 %
28.05.2020 12:00 21,4 C 26,7 C 22,8 C 53 % 1033,7 hPa 0,0 l/m 2 min 0 min 918 W/m 9,7 km/h (2 Bft) 100,00 %
28.05.2020 12:02 21,4 C 26,7 C 22,8 C 53 % 1033,6 hPa 0,0 l/m 2 min 0 min 923 W/m 6,4 km/h (2 Bft) 97,83 %
28.05.2020 12:04 21,5 C 27,2 C 22,8 C 52 % 1033,6 hPa 0,0 l/m 2 min 0 min 925 W/m 9,7 km/h (2 Bft) 100,00 %
28.05.2020 12:06 21,6 C 27,2 C 22,8 C 53 % 1033,6 hPa 0,0 l/m 2 min 0 min 926 W/m 6,4 km/h (2 Bft) 100,00 %
28.05.2020 12:08 21,7 C 27,2 C 22,2 C 51 % 1033,6 hPa 0,0 l/m 2 min 0 min 928 W/m 6,4 km/h (2 Bft) 100,00 %
28.05.2020 12:10 21,7 C 27,2 C 22,2 C 52 % 1033,6 hPa 0,0 l/m 2 min 0 min 933 W/m 3,2 km/h (1 Bft) 100,00 %
28.05.2020 12:12 21,8 C 27,2 C 22,2 C 53 % 1033,5 hPa 0,0 l/m 2 min 0 min 934 W/m 9,7 km/h (2 Bft) 100,00 %
28.05.2020 12:14 21,8 C 26,7 C 21,7 C 50 % 1033,5 hPa 0,0 l/m 2 min 0 min 944 W/m 9,7 km/h (2 Bft) 100,00 %
28.05.2020 12:16 21,8 C 27,2 C 22,2 C 52 % 1033,5 hPa 0,0 l/m 2 min 0 min 943 W/m 6,4 km/h (2 Bft) 100,00 %
28.05.2020 12:18 21,9 C 26,7 C 22,2 C 51 % 1033,5 hPa 0,0 l/m 2 min 0 min 945 W/m 9,7 km/h (2 Bft) 100,00 %
28.05.2020 12:20 22,0 C 27,2 C 22,2 C 52 % 1033,5 hPa 0,0 l/m 2 min 0 min 946 W/m 12,9 km/h (3 Bft) 100,00 %
28.05.2020 12:22 22,1 C 28,3 C 22,2 C 53 % 1033,4 hPa 0,0 l/m 2 min 0 min 947 W/m 3,2 km/h (1 Bft) 100,00 %
28.05.2020 12:24 22,2 C 27,2 C 22,2 C 51 % 1033,4 hPa 0,0 l/m 2 min 0 min 946 W/m 12,9 km/h (3 Bft) 100,00 %
28.05.2020 12:26 22,2 C 26,7 C 22,2 C 48 % 1033,4 hPa 0,0 l/m 2 min 0 min 948 W/m 19,3 km/h (3 Bft) 100,00 %
28.05.2020 12:28 22,2 C 26,7 C 22,2 C 50 % 1033,4 hPa 0,0 l/m 2 min 0 min 955 W/m 12,9 km/h (3 Bft) 100,00 %
28.05.2020 12:30 22,2 C 27,2 C 22,2 C 50 % 1033,3 hPa 0,0 l/m 2 min 0 min 955 W/m 6,4 km/h (2 Bft) 100,00 %
28.05.2020 12:32 22,3 C 27,2 C 22,8 C 49 % 1033,4 hPa 0,0 l/m 2 min 0 min 957 W/m 9,7 km/h (2 Bft) 97,87 %
28.05.2020 12:34 22,2 C 26,7 C 21,7 C 48 % 1033,3 hPa 0,0 l/m 2 min 0 min 958 W/m 12,9 km/h (3 Bft) 100,00 %
28.05.2020 12:36 22,2 C 27,2 C 22,2 C 49 % 1033,3 hPa 0,0 l/m 2 min 0 min 964 W/m 9,7 km/h (2 Bft) 97,83 %
28.05.2020 12:38 22,3 C 27,8 C 22,2 C 49 % 1033,3 hPa 0,0 l/m 2 min 0 min 962 W/m 12,9 km/h (3 Bft) 97,87 %
28.05.2020 12:40 22,3 C 27,2 C 22,8 C 49 % 1033,2 hPa 0,0 l/m 2 min 0 min 966 W/m 12,9 km/h (3 Bft) 100,00 %
28.05.2020 12:42 22,4 C 27,8 C 22,8 C 50 % 1033,3 hPa 0,0 l/m 2 min 0 min 968 W/m 6,4 km/h (2 Bft) 97,87 %
28.05.2020 12:44 22,4 C 27,8 C 22,8 C 48 % 1033,1 hPa 0,0 l/m 2 min 0 min 970 W/m 9,7 km/h (2 Bft) 97,87 %
28.05.2020 12:46 22,4 C 27,8 C 22,8 C 47 % 1033,1 hPa 0,0 l/m 2 min 0 min 970 W/m 9,7 km/h (2 Bft) 97,87 %
28.05.2020 12:48 22,5 C 28,3 C 22,8 C 48 % 1033,1 hPa 0,0 l/m 2 min 0 min 973 W/m 9,7 km/h (2 Bft) 100,00 %
28.05.2020 12:50 22,6 C 27,8 C 23,3 C 47 % 1033,1 hPa 0,0 l/m 2 min 0 min 973 W/m 9,7 km/h (2 Bft) 100,00 %
28.05.2020 12:52 22,6 C 27,8 C 23,3 C 48 % 1033,1 hPa 0,0 l/m 2 min 0 min 975 W/m 12,9 km/h (3 Bft) 100,00 %
28.05.2020 12:54 22,7 C 28,3 C 23,3 C 49 % 1033,0 hPa 0,0 l/m 2 min 0 min 977 W/m 6,4 km/h (2 Bft) 97,87 %
28.05.2020 12:56 22,7 C 28,9 C 23,3 C 48 % 1033,0 hPa 0,0 l/m 2 min 0 min 980 W/m 3,2 km/h (1 Bft) 97,87 %
28.05.2020 12:58 22,8 C 27,8 C 23,3 C 45 % 1033,1 hPa 0,0 l/m 2 min 0 min 981 W/m 12,9 km/h (3 Bft) 100,00 %
28.05.2020 13:00 22,8 C 27,2 C 22,8 C 46 % 1033,0 hPa 0,0 l/m 2 min 0 min 982 W/m 9,7 km/h (2 Bft) 100,00 %
28.05.2020 13:02 22,9 C 27,2 C 23,3 C 47 % 1033,0 hPa 0,0 l/m 2 min 0 min 986 W/m 9,7 km/h (2 Bft) 97,87 %
28.05.2020 13:04 22,9 C 28,3 C 22,8 C 47 % 1032,9 hPa 0,0 l/m 2 min 0 min 984 W/m 6,4 km/h (2 Bft) 97,78 %
28.05.2020 13:06 22,9 C 28,3 C 22,8 C 47 % 1032,9 hPa 0,0 l/m 2 min 0 min 982 W/m 9,7 km/h (2 Bft) 97,87 %
28.05.2020 13:08 23,0 C 27,8 C 22,8 C 46 % 1032,8 hPa 0,0 l/m 2 min 0 min 984 W/m 6,4 km/h (2 Bft) 100,00 %
28.05.2020 13:10 23,1 C 28,3 C 22,8 C 46 % 1032,8 hPa 0,0 l/m 2 min 0 min 987 W/m 6,4 km/h (2 Bft) 100,00 %
28.05.2020 13:12 23,1 C 28,3 C 23,3 C 46 % 1032,9 hPa 0,0 l/m 2 min 0 min 988 W/m 16,1 km/h (3 Bft) 97,87 %
28.05.2020 13:14 23,1 C 28,3 C 22,8 C 47 % 1032,8 hPa 0,0 l/m 2 min 0 min 988 W/m 12,9 km/h (3 Bft) 97,87 %
28.05.2020 13:16 23,2 C 27,8 C 23,3 C 45 % 1032,7 hPa 0,0 l/m 2 min 0 min 988 W/m 9,7 km/h (2 Bft) 97,83 %
28.05.2020 13:18 23,2 C 28,9 C 23,3 C 48 % 1032,8 hPa 0,0 l/m 2 min 0 min 991 W/m 3,2 km/h (1 Bft) 97,87 %
28.05.2020 13:20 23,3 C 28,3 C 23,3 C 45 % 1032,7 hPa 0,0 l/m 2 min 0 min 992 W/m 12,9 km/h (3 Bft) 95,74 %
28.05.2020 13:22 23,3 C 29,4 C 23,9 C 47 % 1032,8 hPa 0,0 l/m 2 min 0 min 991 W/m 6,4 km/h (2 Bft) 95,74 %
28.05.2020 13:24 23,4 C 28,9 C 23,9 C 46 % 1032,8 hPa 0,0 l/m 2 min 0 min 994 W/m 12,9 km/h (3 Bft) 97,87 %
28.05.2020 13:26 23,4 C 28,3 C 23,9 C 45 % 1032,7 hPa 0,0 l/m 2 min 0 min 993 W/m 16,1 km/h (3 Bft) 95,65 %
28.05.2020 13:28 23,5 C 28,3 C 24,4 C 45 % 1032,7 hPa 0,0 l/m 2 min 0 min 995 W/m 6,4 km/h (2 Bft) 95,74 %
28.05.2020 13:30 23,6 C 28,9 C 25,0 C 46 % 1032,6 hPa 0,0 l/m 2 min 0 min 991 W/m 3,2 km/h (1 Bft) 95,74 %
28.05.2020 13:32 23,6 C 29,4 C 25,6 C 46 % 1032,6 hPa 0,0 l/m 2 min 0 min 992 W/m 22,5 km/h (4 Bft) 93,62 %
28.05.2020 13:34 23,6 C 28,9 C 26,1 C 44 % 1032,6 hPa 0,0 l/m 2 min 0 min 992 W/m 16,1 km/h (3 Bft) 97,87 %
28.05.2020 13:36 23,6 C 28,3 C 27,8 C 42 % 1032,5 hPa 0,0 l/m 2 min 0 min 992 W/m 16,1 km/h (3 Bft) 97,87 %
28.05.2020 13:38 23,7 C 28,3 C 28,9 C 44 % 1032,6 hPa 0,0 l/m 2 min 0 min 990 W/m 9,7 km/h (2 Bft) 97,87 %
28.05.2020 13:40 23,7 C 28,3 C 29,4 C 44 % 1032,5 hPa 0,0 l/m 2 min 0 min 992 W/m 16,1 km/h (3 Bft) 97,83 %
28.05.2020 13:42 23,7 C 27,8 C 29,4 C 42 % 1032,6 hPa 0,0 l/m 2 min 0 min 990 W/m 9,7 km/h (2 Bft) 96,61 %
28.05.2020 13:44 23,7 C 28,9 C 30,0 C 45 % 1032,6 hPa 0,0 l/m 2 min 0 min 990 W/m 9,7 km/h (2 Bft) 93,75 %
28.05.2020 13:46 23,8 C 29,4 C 31,1 C 45 % 1032,5 hPa 0,0 l/m 2 min 0 min 992 W/m 6,4 km/h (2 Bft) 94,29 %
28.05.2020 13:48 23,8 C 28,3 C 31,1 C 42 % 1032,5 hPa 0,0 l/m 2 min 0 min 991 W/m 16,1 km/h (3 Bft) 93,62 %
28.05.2020 13:50 23,8 C 28,3 C 30,0 C 43 % 1032,3 hPa 0,0 l/m 2 min 0 min 991 W/m 19,3 km/h (3 Bft) 91,30 %
28.05.2020 13:52 23,8 C 28,9 C 29,4 C 45 % 1032,4 hPa 0,0 l/m 2 min 0 min 991 W/m 19,3 km/h (3 Bft) 91,49 %
28.05.2020 13:54 23,8 C 28,3 C 29,4 C 43 % 1032,4 hPa 0,0 l/m 2 min 0 min 989 W/m 9,7 km/h (2 Bft) 93,62 %
28.05.2020 13:56 23,9 C 29,4 C 29,4 C 46 % 1032,3 hPa 0,0 l/m 2 min 0 min 992 W/m 12,9 km/h (3 Bft) 89,36 %
28.05.2020 13:58 24,0 C 29,4 C 29,4 C 44 % 1032,3 hPa 0,0 l/m 2 min 0 min 988 W/m 3,2 km/h (1 Bft) 93,62 %
28.05.2020 14:00 24,1 C 29,4 C 28,9 C 43 % 1032,4 hPa 0,0 l/m 2 min 0 min 989 W/m 6,4 km/h (2 Bft) 93,75 %
28.05.2020 14:02 24,1 C 29,4 C 27,8 C 43 % 1032,3 hPa 0,0 l/m 2 min 0 min 992 W/m 6,4 km/h (2 Bft) 93,48 %
28.05.2020 14:04 24,1 C 28,9 C 27,2 C 42 % 1032,3 hPa 0,0 l/m 2 min 0 min 995 W/m 9,7 km/h (2 Bft) 91,49 %
28.05.2020 14:06 24,2 C 28,9 C 26,7 C 43 % 1032,3 hPa 0,0 l/m 2 min 0 min 992 W/m 9,7 km/h (2 Bft) 93,62 %
28.05.2020 14:08 24,1 C 28,3 C 26,1 C 42 % 1032,2 hPa 0,0 l/m 2 min 0 min 992 W/m 6,4 km/h (2 Bft) 89,58 %
28.05.2020 14:10 24,2 C 28,3 C 25,6 C 41 % 1032,3 hPa 0,0 l/m 2 min 0 min 989 W/m 9,7 km/h (2 Bft) 95,74 %
28.05.2020 14:12 24,2 C 28,9 C 25,0 C 44 % 1032,2 hPa 0,0 l/m 2 min 0 min 990 W/m 12,9 km/h (3 Bft) 93,62 %
28.05.2020 14:14 24,2 C 28,9 C 25,0 C 43 % 1032,2 hPa 0,0 l/m 2 min 0 min 987 W/m 9,7 km/h (2 Bft) 93,48 %
28.05.2020 14:16 24,3 C 30,0 C 24,4 C 44 % 1032,3 hPa 0,0 l/m 2 min 0 min 986 W/m 9,7 km/h (2 Bft) 92,00 %
28.05.2020 14:18 24,3 C 29,4 C 24,4 C 42 % 1032,3 hPa 0,0 l/m 2 min 0 min 982 W/m 6,4 km/h (2 Bft) 95,74 %
28.05.2020 14:20 24,4 C 29,4 C 23,9 C 42 % 1032,2 hPa 0,0 l/m 2 min 0 min 981 W/m 6,4 km/h (2 Bft) 95,74 %
28.05.2020 14:22 24,4 C 28,3 C 23,9 C 41 % 1032,2 hPa 0,0 l/m 2 min 0 min 974 W/m 9,7 km/h (2 Bft) 93,62 %
28.05.2020 14:24 24,4 C 28,9 C 23,9 C 44 % 1032,1 hPa 0,0 l/m 2 min 0 min 968 W/m 9,7 km/h (2 Bft) 95,65 %
28.05.2020 14:26 24,4 C 29,4 C 23,9 C 44 % 1032,1 hPa 0,0 l/m 2 min 0 min 975 W/m 9,7 km/h (2 Bft) 97,87 %
28.05.2020 14:28 24,5 C 29,4 C 23,9 C 44 % 1032,1 hPa 0,0 l/m 2 min 0 min 971 W/m 3,2 km/h (1 Bft) 97,87 %
28.05.2020 14:30 24,5 C 28,9 C 23,9 C 41 % 1032,0 hPa 0,0 l/m 2 min 0 min 974 W/m 9,7 km/h (2 Bft) 97,87 %
28.05.2020 14:32 24,6 C 29,4 C 23,9 C 44 % 1032,0 hPa 0,0 l/m 2 min 0 min 973 W/m 6,4 km/h (2 Bft) 93,62 %
28.05.2020 14:34 24,6 C 29,4 C 23,9 C 42 % 1032,0 hPa 0,0 l/m 2 min 0 min 970 W/m 9,7 km/h (2 Bft) 97,87 %
28.05.2020 14:36 24,6 C 28,9 C 23,9 C 42 % 1032,0 hPa 0,0 l/m 2 min 0 min 964 W/m 12,9 km/h (3 Bft) 97,83 %
28.05.2020 14:38 24,6 C 28,3 C 23,3 C 41 % 1032,0 hPa 0,0 l/m 2 min 0 min 964 W/m 19,3 km/h (3 Bft) 97,92 %
28.05.2020 14:40 24,6 C 28,9 C 23,3 C 42 % 1031,9 hPa 0,0 l/m 2 min 0 min 957 W/m 9,7 km/h (2 Bft) 97,87 %
28.05.2020 14:42 24,6 C 29,4 C 23,3 C 44 % 1032,0 hPa 0,0 l/m 2 min 0 min 957 W/m 9,7 km/h (2 Bft) 100,00 %
28.05.2020 14:44 24,6 C 29,4 C 23,3 C 43 % 1032,0 hPa 0,0 l/m 2 min 0 min 962 W/m 9,7 km/h (2 Bft) 100,00 %
28.05.2020 14:46 24,6 C 29,4 C 23,3 C 43 % 1031,9 hPa 0,0 l/m 2 min 0 min 958 W/m 9,7 km/h (2 Bft) 100,00 %
28.05.2020 14:48 24,6 C 28,9 C 22,8 C 41 % 1031,9 hPa 0,0 l/m 2 min 0 min 957 W/m 12,9 km/h (3 Bft) 97,87 %
28.05.2020 14:50 24,6 C 28,9 C 22,8 C 42 % 1031,9 hPa 0,0 l/m 2 min 0 min 954 W/m 12,9 km/h (3 Bft) 100,00 %
28.05.2020 14:52 24,6 C 28,9 C 23,3 C 42 % 1031,8 hPa 0,0 l/m 2 min 0 min 953 W/m 6,4 km/h (2 Bft) 100,00 %
28.05.2020 14:54 24,6 C 28,9 C 23,3 C 42 % 1031,8 hPa 0,0 l/m 2 min 0 min 952 W/m 9,7 km/h (2 Bft) 100,00 %
28.05.2020 14:56 24,7 C 28,9 C 23,3 C 42 % 1031,8 hPa 0,0 l/m 2 min 0 min 947 W/m 3,2 km/h (1 Bft) 100,00 %
28.05.2020 14:58 24,7 C 29,4 C 23,3 C 43 % 1031,8 hPa 0,0 l/m 2 min 0 min 947 W/m 6,4 km/h (2 Bft) 97,83 %
28.05.2020 15:00 24,7 C 28,9 C 23,3 C 42 % 1031,8 hPa 0,0 l/m 2 min 0 min 947 W/m 6,4 km/h (2 Bft) 100,00 %
28.05.2020 15:02 24,7 C 29,4 C 22,8 C 44 % 1031,8 hPa 0,0 l/m 2 min 0 min 941 W/m 19,3 km/h (3 Bft) 100,00 %
28.05.2020 15:04 24,7 C 29,4 C 22,8 C 43 % 1031,8 hPa 0,0 l/m 2 min 0 min 941 W/m 3,2 km/h (1 Bft) 100,00 %
28.05.2020 15:06 24,8 C 29,4 C 22,8 C 43 % 1031,7 hPa 0,0 l/m 2 min 0 min 939 W/m 6,4 km/h (2 Bft) 100,00 %
28.05.2020 15:08 24,8 C 29,4 C 22,8 C 41 % 1031,8 hPa 0,0 l/m 2 min 0 min 936 W/m 6,4 km/h (2 Bft) 100,00 %
28.05.2020 15:10 24,8 C 28,9 C 22,8 C 41 % 1031,7 hPa 0,0 l/m 2 min 0 min 931 W/m 16,1 km/h (3 Bft) 100,00 %
28.05.2020 15:12 24,8 C 29,4 C 22,8 C 42 % 1031,7 hPa 0,0 l/m 2 min 0 min 930 W/m 6,4 km/h (2 Bft) 100,00 %
28.05.2020 15:14 24,8 C 29,4 C 22,8 C 42 % 1031,7 hPa 0,0 l/m 2 min 0 min 927 W/m 16,1 km/h (3 Bft) 100,00 %
28.05.2020 15:16 24,9 C 30,0 C 22,8 C 42 % 1031,7 hPa 0,0 l/m 2 min 0 min 921 W/m 9,7 km/h (2 Bft) 100,00 %
28.05.2020 15:18 24,9 C 29,4 C 22,8 C 41 % 1031,7 hPa 0,0 l/m 2 min 0 min 922 W/m 9,7 km/h (2 Bft) 100,00 %
28.05.2020 15:20 24,9 C 30,0 C 22,8 C 42 % 1031,7 hPa 0,0 l/m 2 min 0 min 904 W/m 9,7 km/h (2 Bft) 100,00 %
28.05.2020 15:22 24,9 C 30,0 C 22,8 C 43 % 1031,6 hPa 0,0 l/m 2 min 0 min 887 W/m 6,4 km/h (2 Bft) 100,00 %
28.05.2020 15:24 25,0 C 30,0 C 22,8 C 44 % 1031,6 hPa 0,0 l/m 2 min 0 min 910 W/m 3,2 km/h (1 Bft) 100,00 %
28.05.2020 15:26 25,1 C 30,0 C 22,8 C 42 % 1031,6 hPa 0,0 l/m 2 min 0 min 910 W/m 12,9 km/h (3 Bft) 100,00 %
28.05.2020 15:28 25,1 C 28,9 C 22,8 C 40 % 1031,6 hPa 0,0 l/m 2 min 0 min 906 W/m 6,4 km/h (2 Bft) 100,00 %
28.05.2020 15:30 25,0 C 28,9 C 22,8 C 41 % 1031,5 hPa 0,0 l/m 2 min 0 min 903 W/m 12,9 km/h (3 Bft) 100,00 %
28.05.2020 15:32 25,0 C 28,3 C 22,8 C 40 % 1031,5 hPa 0,0 l/m 2 min 0 min 900 W/m 12,9 km/h (3 Bft) 100,00 %
28.05.2020 15:34 25,1 C 28,3 C 23,3 C 43 % 1031,5 hPa 0,0 l/m 2 min 0 min 892 W/m 9,7 km/h (2 Bft) 100,00 %
28.05.2020 15:36 25,1 C 29,4 C 22,8 C 43 % 1031,5 hPa 0,0 l/m 2 min 0 min 883 W/m 6,4 km/h (2 Bft) 100,00 %
28.05.2020 15:38 25,1 C 30,0 C 22,8 C 42 % 1031,5 hPa 0,0 l/m 2 min 0 min 886 W/m 3,2 km/h (1 Bft) 100,00 %
28.05.2020 15:40 25,2 C 30,0 C 22,8 C 43 % 1031,5 hPa 0,0 l/m 2 min 0 min 885 W/m 3,2 km/h (1 Bft) 97,87 %
28.05.2020 15:42 25,2 C 29,4 C 22,8 C 43 % 1031,5 hPa 0,0 l/m 2 min 0 min 880 W/m 12,9 km/h (3 Bft) 97,87 %
28.05.2020 15:44 25,2 C 28,9 C 22,8 C 41 % 1031,4 hPa 0,0 l/m 2 min 0 min 878 W/m 9,7 km/h (2 Bft) 100,00 %
28.05.2020 15:46 25,2 C 28,9 C 22,8 C 42 % 1031,4 hPa 0,0 l/m 2 min 0 min 876 W/m 9,7 km/h (2 Bft) 100,00 %
28.05.2020 15:48 25,2 C 28,9 C 22,8 C 42 % 1031,5 hPa 0,0 l/m 2 min 0 min 874 W/m 9,7 km/h (2 Bft) 100,00 %
28.05.2020 15:50 25,2 C 27,8 C 22,8 C 42 % 1031,6 hPa 0,0 l/m 2 min 0 min 867 W/m 16,1 km/h (3 Bft) 100,00 %
28.05.2020 15:52 25,2 C 28,3 C 22,8 C 41 % 1031,5 hPa 0,0 l/m 2 min 0 min 860 W/m 6,4 km/h (2 Bft) 100,00 %
28.05.2020 15:54 25,2 C 28,9 C 22,8 C 44 % 1031,4 hPa 0,0 l/m 2 min 0 min 857 W/m 3,2 km/h (1 Bft) 100,00 %
28.05.2020 15:56 25,2 C 28,3 C 22,2 C 40 % 1031,4 hPa 0,0 l/m 2 min 0 min 855 W/m 12,9 km/h (3 Bft) 97,83 %
28.05.2020 15:58 25,2 C 28,3 C 22,8 C 41 % 1031,4 hPa 0,0 l/m 2 min 0 min 846 W/m 12,9 km/h (3 Bft) 100,00 %
28.05.2020 16:00 25,2 C 28,9 C 22,2 C 43 % 1031,4 hPa 0,0 l/m 2 min 0 min 841 W/m 3,2 km/h (1 Bft) 100,00 %
28.05.2020 16:02 25,2 C 28,3 C 22,2 C 43 % 1031,3 hPa 0,0 l/m 2 min 0 min 841 W/m 9,7 km/h (2 Bft) 97,87 %
28.05.2020 16:04 25,2 C 28,9 C 22,2 C 42 % 1031,3 hPa 0,0 l/m 2 min 0 min 841 W/m 6,4 km/h (2 Bft) 100,00 %
28.05.2020 16:06 25,2 C 29,4 C 22,2 C 43 % 1031,3 hPa 0,0 l/m 2 min 0 min 838 W/m 9,7 km/h (2 Bft) 97,87 %
28.05.2020 16:08 25,2 C 29,4 C 22,2 C 42 % 1031,3 hPa 0,0 l/m 2 min 0 min 835 W/m 6,4 km/h (2 Bft) 97,87 %
28.05.2020 16:10 25,2 C 28,9 C 22,2 C 41 % 1031,3 hPa 0,0 l/m 2 min 0 min 831 W/m 6,4 km/h (2 Bft) 100,00 %
28.05.2020 16:12 25,2 C 28,9 C 22,8 C 41 % 1031,2 hPa 0,0 l/m 2 min 0 min 825 W/m 9,7 km/h (2 Bft) 100,00 %
28.05.2020 16:14 25,2 C 28,9 C 22,2 C 42 % 1031,3 hPa 0,0 l/m 2 min 0 min 821 W/m 3,2 km/h (1 Bft) 100,00 %
28.05.2020 16:16 25,2 C 28,3 C 22,2 C 40 % 1031,2 hPa 0,0 l/m 2 min 0 min 814 W/m 9,7 km/h (2 Bft) 97,87 %
28.05.2020 16:18 25,2 C 28,9 C 22,2 C 42 % 1031,2 hPa 0,0 l/m 2 min 0 min 810 W/m 9,7 km/h (2 Bft) 95,65 %
28.05.2020 16:20 25,2 C 28,3 C 22,8 C 40 % 1031,1 hPa 0,0 l/m 2 min 0 min 803 W/m 6,4 km/h (2 Bft) 95,83 %
28.05.2020 16:22 25,2 C 26,7 C 22,2 C 38 % 1031,1 hPa 0,0 l/m 2 min 0 min 800 W/m 16,1 km/h (3 Bft) 95,74 %
28.05.2020 16:24 25,2 C 27,8 C 22,2 C 42 % 1031,1 hPa 0,0 l/m 2 min 0 min 795 W/m 6,4 km/h (2 Bft) 97,87 %
28.05.2020 16:26 25,2 C 28,3 C 22,2 C 41 % 1031,1 hPa 0,0 l/m 2 min 0 min 792 W/m 6,4 km/h (2 Bft) 95,74 %
28.05.2020 16:28 25,1 C 28,9 C 22,2 C 41 % 1031,0 hPa 0,0 l/m 2 min 0 min 788 W/m 3,2 km/h (1 Bft) 93,62 %
28.05.2020 16:30 25,1 C 29,4 C 22,2 C 43 % 1031,0 hPa 0,0 l/m 2 min 0 min 786 W/m 3,2 km/h (1 Bft) 95,65 %
28.05.2020 16:32 25,2 C 29,4 C 22,2 C 42 % 1031,0 hPa 0,0 l/m 2 min 0 min 780 W/m 9,7 km/h (2 Bft) 95,74 %
28.05.2020 16:34 25,2 C 28,9 C 22,2 C 40 % 1031,0 hPa 0,0 l/m 2 min 0 min 774 W/m 6,4 km/h (2 Bft) 95,74 %
28.05.2020 16:36 25,2 C 28,3 C 22,2 C 41 % 1031,0 hPa 0,0 l/m 2 min 0 min 770 W/m 6,4 km/h (2 Bft) 95,74 %
28.05.2020 16:38 25,2 C 28,3 C 22,2 C 43 % 1031,0 hPa 0,0 l/m 2 min 0 min 765 W/m 6,4 km/h (2 Bft) 95,74 %
28.05.2020 16:40 25,2 C 28,9 C 22,2 C 42 % 1031,0 hPa 0,0 l/m 2 min 0 min 760 W/m 9,7 km/h (2 Bft) 93,62 %
28.05.2020 16:42 25,2 C 28,3 C 22,2 C 43 % 1030,9 hPa 0,0 l/m 2 min 0 min 756 W/m 3,2 km/h (1 Bft) 95,65 %
28.05.2020 16:44 25,2 C 29,4 C 22,2 C 45 % 1030,8 hPa 0,0 l/m 2 min 0 min 752 W/m 3,2 km/h (1 Bft) 95,74 %
28.05.2020 16:46 25,2 C 28,3 C 22,2 C 41 % 1030,9 hPa 0,0 l/m 2 min 0 min 748 W/m 16,1 km/h (3 Bft) 95,45 %
28.05.2020 16:48 25,3 C 28,3 C 22,2 C 42 % 1030,9 hPa 0,0 l/m 2 min 0 min 743 W/m 6,4 km/h (2 Bft) 95,74 %
28.05.2020 16:50 25,3 C 28,9 C 22,2 C 42 % 1030,8 hPa 0,0 l/m 2 min 0 min 738 W/m 0,0 km/h (0 Bft) 95,74 %
28.05.2020 16:52 25,3 C 28,3 C 22,2 C 40 % 1030,8 hPa 0,0 l/m 2 min 0 min 735 W/m 9,7 km/h (2 Bft) 95,74 %
28.05.2020 16:54 25,3 C 27,8 C 22,2 C 40 % 1030,8 hPa 0,0 l/m 2 min 0 min 730 W/m 16,1 km/h (3 Bft) 97,87 %
28.05.2020 16:56 25,2 C 27,8 C 22,2 C 41 % 1030,8 hPa 0,0 l/m 2 min 0 min 722 W/m 6,4 km/h (2 Bft) 93,62 %
28.05.2020 16:58 25,2 C 27,8 C 22,2 C 40 % 1030,7 hPa 0,0 l/m 2 min 0 min 719 W/m 3,2 km/h (1 Bft) 93,62 %
28.05.2020 17:00 25,2 C 28,3 C 22,2 C 42 % 1030,7 hPa 0,0 l/m 2 min 0 min 715 W/m 6,4 km/h (2 Bft) 95,74 %
28.05.2020 17:02 25,2 C 28,3 C 22,2 C 41 % 1030,7 hPa 0,0 l/m 2 min 0 min 711 W/m 6,4 km/h (2 Bft) 93,62 %
28.05.2020 17:04 25,2 C 27,8 C 22,2 C 40 % 1030,7 hPa 0,0 l/m 2 min 0 min 706 W/m 12,9 km/h (3 Bft) 93,62 %
28.05.2020 17:06 25,2 C 27,8 C 22,2 C 40 % 1030,7 hPa 0,0 l/m 2 min 0 min 698 W/m 9,7 km/h (2 Bft) 97,87 %
28.05.2020 17:08 25,2 C 27,8 C 22,2 C 40 % 1030,7 hPa 0,0 l/m 2 min 0 min 694 W/m 9,7 km/h (2 Bft) 95,65 %
28.05.2020 17:10 25,1 C 27,2 C 22,2 C 40 % 1030,7 hPa 0,0 l/m 2 min 0 min 687 W/m 25,7 km/h (4 Bft) 95,74 %
28.05.2020 17:12 25,1 C 26,7 C 22,2 C 39 % 1030,7 hPa 0,0 l/m 2 min 0 min 682 W/m 12,9 km/h (3 Bft) 95,74 %
28.05.2020 17:14 25,1 C 27,2 C 22,2 C 41 % 1030,7 hPa 0,0 l/m 2 min 0 min 679 W/m 6,4 km/h (2 Bft) 93,62 %
28.05.2020 17:16 25,1 C 27,8 C 22,2 C 40 % 1030,7 hPa 0,0 l/m 2 min 0 min 671 W/m 6,4 km/h (2 Bft) 95,74 %
28.05.2020 17:18 25,1 C 27,2 C 22,2 C 40 % 1030,6 hPa 0,0 l/m 2 min 0 min 666 W/m 9,7 km/h (2 Bft) 95,65 %
28.05.2020 17:20 25,1 C 27,8 C 22,2 C 42 % 1030,6 hPa 0,0 l/m 2 min 0 min 663 W/m 3,2 km/h (1 Bft) 97,87 %
28.05.2020 17:22 25,1 C 27,8 C 22,2 C 40 % 1030,6 hPa 0,0 l/m 2 min 0 min 656 W/m 12,9 km/h (3 Bft) 95,74 %
28.05.2020 17:24 25,1 C 27,2 C 22,2 C 41 % 1030,6 hPa 0,0 l/m 2 min 0 min 648 W/m 16,1 km/h (3 Bft) 97,87 %
28.05.2020 17:26 25,1 C 27,2 C 22,2 C 40 % 1030,6 hPa 0,0 l/m 2 min 0 min 644 W/m 16,1 km/h (3 Bft) 97,87 %
28.05.2020 17:28 25,1 C 26,7 C 22,2 C 39 % 1030,6 hPa 0,0 l/m 2 min 0 min 635 W/m 16,1 km/h (3 Bft) 97,87 %
28.05.2020 17:30 25,0 C 27,2 C 22,2 C 41 % 1030,6 hPa 0,0 l/m 2 min 0 min 609 W/m 6,4 km/h (2 Bft) 97,83 %
28.05.2020 17:32 25,0 C 27,2 C 22,2 C 40 % 1030,6 hPa 0,0 l/m 2 min 0 min 609 W/m 3,2 km/h (1 Bft) 95,83 %
28.05.2020 17:34 25,0 C 27,2 C 22,2 C 41 % 1030,5 hPa 0,0 l/m 2 min 0 min 622 W/m 6,4 km/h (2 Bft) 97,87 %
28.05.2020 17:36 24,9 C 26,7 C 22,2 C 39 % 1030,6 hPa 0,0 l/m 2 min 0 min 619 W/m 9,7 km/h (2 Bft) 97,87 %
28.05.2020 17:38 24,9 C 27,2 C 22,2 C 41 % 1030,5 hPa 0,0 l/m 2 min 0 min 618 W/m 6,4 km/h (2 Bft) 97,87 %
28.05.2020 17:40 24,9 C 27,2 C 21,7 C 40 % 1030,5 hPa 0,0 l/m 2 min 0 min 609 W/m 6,4 km/h (2 Bft) 97,87 %
28.05.2020 17:42 24,9 C 26,7 C 21,7 C 39 % 1030,5 hPa 0,0 l/m 2 min 0 min 602 W/m 19,3 km/h (3 Bft) 95,65 %
28.05.2020 17:44 24,9 C 26,7 C 21,7 C 40 % 1030,4 hPa 0,0 l/m 2 min 0 min 572 W/m 6,4 km/h (2 Bft) 97,87 %
28.05.2020 17:46 24,9 C 26,7 C 21,7 C 40 % 1030,4 hPa 0,0 l/m 2 min 0 min 577 W/m 3,2 km/h (1 Bft) 95,74 %
28.05.2020 17:48 24,9 C 26,7 C 21,7 C 41 % 1030,5 hPa 0,0 l/m 2 min 0 min 578 W/m 12,9 km/h (3 Bft) 97,87 %
28.05.2020 17:50 24,9 C 26,7 C 21,7 C 43 % 1030,4 hPa 0,0 l/m 2 min 0 min 570 W/m 12,9 km/h (3 Bft) 97,87 %
28.05.2020 17:52 24,8 C 26,7 C 21,7 C 42 % 1030,4 hPa 0,0 l/m 2 min 0 min 565 W/m 3,2 km/h (1 Bft) 97,87 %
28.05.2020 17:54 24,8 C 26,7 C 21,7 C 42 % 1030,4 hPa 0,0 l/m 2 min 0 min 560 W/m 3,2 km/h (1 Bft) 97,83 %
28.05.2020 17:56 24,7 C 26,7 C 21,7 C 43 % 1030,4 hPa 0,0 l/m 2 min 0 min 556 W/m 12,9 km/h (3 Bft) 97,87 %
28.05.2020 17:58 24,7 C 26,7 C 21,7 C 42 % 1030,4 hPa 0,0 l/m 2 min 0 min 551 W/m 3,2 km/h (1 Bft) 97,87 %
28.05.2020 18:00 24,6 C 26,1 C 21,1 C 43 % 1030,4 hPa 0,0 l/m 2 min 0 min 544 W/m 3,2 km/h (1 Bft) 95,74 %
28.05.2020 18:02 24,6 C 26,7 C 21,1 C 42 % 1030,4 hPa 0,0 l/m 2 min 0 min 538 W/m 3,2 km/h (1 Bft) 95,74 %
28.05.2020 18:04 24,6 C 26,1 C 21,1 C 42 % 1030,4 hPa 0,0 l/m 2 min 0 min 530 W/m 12,9 km/h (3 Bft) 97,87 %
28.05.2020 18:06 24,6 C 26,1 C 21,1 C 42 % 1030,5 hPa 0,0 l/m 2 min 0 min 524 W/m 6,4 km/h (2 Bft) 95,65 %
28.05.2020 18:08 24,6 C 26,1 C 21,1 C 42 % 1030,4 hPa 0,0 l/m 2 min 0 min 517 W/m 6,4 km/h (2 Bft) 100,00 %
28.05.2020 18:10 24,6 C 26,1 C 21,1 C 42 % 1030,4 hPa 0,0 l/m 2 min 0 min 511 W/m 3,2 km/h (1 Bft) 100,00 %
28.05.2020 18:12 24,6 C 25,6 C 21,1 C 43 % 1030,4 hPa 0,0 l/m 2 min 0 min 506 W/m 9,7 km/h (2 Bft) 97,87 %
28.05.2020 18:14 24,5 C 25,6 C 21,1 C 43 % 1030,3 hPa 0,0 l/m 2 min 0 min 499 W/m 12,9 km/h (3 Bft) 100,00 %
28.05.2020 18:16 24,5 C 26,1 C 21,1 C 42 % 1030,3 hPa 0,0 l/m 2 min 0 min 495 W/m 6,4 km/h (2 Bft) 100,00 %
28.05.2020 18:18 24,4 C 25,6 C 20,6 C 41 % 1030,2 hPa 0,0 l/m 2 min 0 min 488 W/m 3,2 km/h (1 Bft) 100,00 %
28.05.2020 18:20 24,3 C 24,4 C 20,6 C 39 % 1030,2 hPa 0,0 l/m 2 min 0 min 479 W/m 12,9 km/h (3 Bft) 100,00 %
28.05.2020 18:22 24,3 C 24,4 C 20,6 C 41 % 1030,2 hPa 0,0 l/m 2 min 0 min 437 W/m 12,9 km/h (3 Bft) 95,74 %
28.05.2020 18:24 24,2 C 23,9 C 20,6 C 40 % 1030,2 hPa 0,0 l/m 2 min 0 min 469 W/m 12,9 km/h (3 Bft) 100,00 %
28.05.2020 18:26 24,2 C 24,4 C 20,6 C 40 % 1030,2 hPa 0,0 l/m 2 min 0 min 461 W/m 9,7 km/h (2 Bft) 100,00 %
28.05.2020 18:28 24,1 C 23,9 C 20,6 C 41 % 1030,1 hPa 0,0 l/m 2 min 0 min 454 W/m 19,3 km/h (3 Bft) 100,00 %
28.05.2020 18:30 24,1 C 24,4 C 20,6 C 44 % 1030,2 hPa 0,0 l/m 2 min 0 min 450 W/m 3,2 km/h (1 Bft) 100,00 %
28.05.2020 18:32 23,9 C 24,4 C 20,6 C 42 % 1030,1 hPa 0,0 l/m 2 min 0 min 444 W/m 9,7 km/h (2 Bft) 100,00 %
28.05.2020 18:34 23,9 C 24,4 C 20,6 C 42 % 1030,1 hPa 0,0 l/m 2 min 0 min 435 W/m 3,2 km/h (1 Bft) 100,00 %
28.05.2020 18:36 23,9 C 24,4 C 20,6 C 43 % 1030,1 hPa 0,0 l/m 2 min 0 min 432 W/m 3,2 km/h (1 Bft) 100,00 %
28.05.2020 18:38 23,8 C 24,4 C 20,6 C 42 % 1030,1 hPa 0,0 l/m 2 min 0 min 426 W/m 3,2 km/h (1 Bft) 100,00 %
28.05.2020 18:40 23,8 C 24,4 C 20,6 C 43 % 1030,1 hPa 0,0 l/m 2 min 0 min 418 W/m 6,4 km/h (2 Bft) 100,00 %
28.05.2020 18:42 23,8 C 24,4 C 20,6 C 41 % 1030,1 hPa 0,0 l/m 2 min 0 min 413 W/m 6,4 km/h (2 Bft) 100,00 %
28.05.2020 18:44 23,8 C 23,9 C 20,6 C 42 % 1030,1 hPa 0,0 l/m 2 min 0 min 409 W/m 3,2 km/h (1 Bft) 100,00 %
28.05.2020 18:46 23,7 C 23,9 C 20,6 C 42 % 1030,1 hPa 0,0 l/m 2 min 0 min 402 W/m 9,7 km/h (2 Bft) 100,00 %
28.05.2020 18:48 23,6 C 23,3 C 20,0 C 42 % 1030,1 hPa 0,0 l/m 2 min 0 min 396 W/m 9,7 km/h (2 Bft) 100,00 %
28.05.2020 18:50 23,6 C 23,3 C 20,0 C 41 % 1030,0 hPa 0,0 l/m 2 min 0 min 390 W/m 6,4 km/h (2 Bft) 97,87 %
28.05.2020 18:52 23,6 C 23,3 C 20,0 C 43 % 1030,0 hPa 0,0 l/m 2 min 0 min 384 W/m 6,4 km/h (2 Bft) 95,65 %
28.05.2020 18:54 23,5 C 23,3 C 20,0 C 43 % 1030,0 hPa 0,0 l/m 2 min 0 min 376 W/m 9,7 km/h (2 Bft) 97,87 %
28.05.2020 18:56 23,4 C 22,8 C 20,0 C 43 % 1030,0 hPa 0,0 l/m 2 min 0 min 371 W/m 6,4 km/h (2 Bft) 95,74 %
28.05.2020 18:58 23,4 C 22,8 C 20,0 C 44 % 1029,9 hPa 0,0 l/m 2 min 0 min 365 W/m 3,2 km/h (1 Bft) 95,74 %
28.05.2020 19:00 23,4 C 22,8 C 19,4 C 41 % 1029,9 hPa 0,0 l/m 2 min 0 min 359 W/m 6,4 km/h (2 Bft) 95,74 %
28.05.2020 19:02 23,3 C 22,8 C 19,4 C 43 % 1029,9 hPa 0,0 l/m 2 min 0 min 351 W/m 6,4 km/h (2 Bft) 97,92 %
28.05.2020 19:04 23,3 C 22,8 C 19,4 C 42 % 1030,0 hPa 0,0 l/m 2 min 0 min 345 W/m 6,4 km/h (2 Bft) 97,83 %
28.05.2020 19:06 23,3 C 22,8 C 19,4 C 42 % 1030,0 hPa 0,0 l/m 2 min 0 min 339 W/m 6,4 km/h (2 Bft) 97,87 %
28.05.2020 19:08 23,2 C 22,2 C 19,4 C 41 % 1029,9 hPa 0,0 l/m 2 min 0 min 333 W/m 6,4 km/h (2 Bft) 97,87 %
28.05.2020 19:10 23,2 C 21,7 C 18,9 C 40 % 1029,9 hPa 0,0 l/m 2 min 0 min 328 W/m 6,4 km/h (2 Bft) 95,74 %
28.05.2020 19:12 23,1 C 21,7 C 18,9 C 44 % 1029,9 hPa 0,0 l/m 2 min 0 min 318 W/m 6,4 km/h (2 Bft) 97,87 %
28.05.2020 19:14 23,0 C 21,1 C 18,9 C 44 % 1029,8 hPa 0,0 l/m 2 min 0 min 312 W/m 9,7 km/h (2 Bft) 95,74 %
28.05.2020 19:16 22,8 C 21,1 C 18,9 C 45 % 1029,9 hPa 0,0 l/m 2 min 0 min 306 W/m 12,9 km/h (3 Bft) 97,83 %
28.05.2020 19:18 22,7 C 21,1 C 18,9 C 43 % 1029,9 hPa 0,0 l/m 2 min 0 min 299 W/m 12,9 km/h (3 Bft) 95,74 %
28.05.2020 19:20 22,6 C 21,1 C 18,3 C 44 % 1029,9 hPa 0,0 l/m 2 min 0 min 291 W/m 0,0 km/h (0 Bft) 95,74 %
28.05.2020 19:22 22,4 C 21,1 C 18,9 C 43 % 1029,8 hPa 0,0 l/m 2 min 0 min 286 W/m 9,7 km/h (2 Bft) 95,74 %
28.05.2020 19:24 22,3 C 21,1 C 18,9 C 43 % 1029,9 hPa 0,0 l/m 2 min 0 min 277 W/m 19,3 km/h (3 Bft) 95,74 %
28.05.2020 19:26 22,2 C 20,6 C 18,3 C 44 % 1029,8 hPa 0,0 l/m 2 min 0 min 270 W/m 9,7 km/h (2 Bft) 97,87 %
28.05.2020 19:28 22,1 C 20,6 C 18,3 C 42 % 1029,8 hPa 0,0 l/m 2 min 0 min 264 W/m 9,7 km/h (2 Bft) 97,83 %
28.05.2020 19:30 22,0 C 20,0 C 18,3 C 42 % 1029,8 hPa 0,0 l/m 2 min 0 min 245 W/m 6,4 km/h (2 Bft) 95,74 %
28.05.2020 19:32 21,9 C 20,0 C 18,3 C 45 % 1029,8 hPa 0,0 l/m 2 min 0 min 162 W/m 6,4 km/h (2 Bft) 95,74 %
28.05.2020 19:34 21,8 C 19,4 C 18,3 C 43 % 1029,7 hPa 0,0 l/m 0 min 0 min 85 W/m 3,2 km/h (1 Bft) 95,74 %
28.05.2020 19:36 21,6 C 19,4 C 18,3 C 43 % 1029,8 hPa 0,0 l/m 0 min 0 min 55 W/m 6,4 km/h (2 Bft) 95,74 %
28.05.2020 19:38 21,6 C 19,4 C 18,3 C 44 % 1029,8 hPa 0,0 l/m 0 min 0 min 54 W/m 3,2 km/h (1 Bft) 97,83 %
28.05.2020 19:40 21,4 C 19,4 C 17,8 C 45 % 1029,8 hPa 0,0 l/m 0 min 0 min 54 W/m 6,4 km/h (2 Bft) 97,87 %
28.05.2020 19:42 21,3 C 18,9 C 17,8 C 44 % 1029,8 hPa 0,0 l/m 0 min 0 min 53 W/m 3,2 km/h (1 Bft) 95,74 %
28.05.2020 19:44 21,2 C 18,9 C 17,8 C 44 % 1029,8 hPa 0,0 l/m 0 min 0 min 52 W/m 3,2 km/h (1 Bft) 97,87 %
28.05.2020 19:46 21,2 C 18,9 C 17,8 C 47 % 1029,8 hPa 0,0 l/m 0 min 0 min 51 W/m 9,7 km/h (2 Bft) 95,74 %
28.05.2020 19:48 21,1 C 18,9 C 17,8 C 46 % 1029,8 hPa 0,0 l/m 0 min 0 min 50 W/m 16,1 km/h (3 Bft) 93,62 %
28.05.2020 19:50 20,9 C 18,9 C 17,2 C 46 % 1029,7 hPa 0,0 l/m 0 min 0 min 49 W/m 6,4 km/h (2 Bft) 96,00 %
28.05.2020 19:54 20,8 C 18,3 C 16,7 C 48 % 1029,7 hPa 0,0 l/m 0 min 0 min 47 W/m 0,0 km/h (0 Bft) 97,22 %
28.05.2020 19:56 20,7 C 18,3 C 16,7 C 47 % 1029,6 hPa 0,0 l/m 0 min 0 min 47 W/m 6,4 km/h (2 Bft) 98,18 %
28.05.2020 19:58 20,6 C 18,3 C 16,7 C 45 % 1029,6 hPa 0,0 l/m 0 min 0 min 46 W/m 6,4 km/h (2 Bft) 95,92 %
28.05.2020 20:00 20,5 C 18,3 C 16,7 C 48 % 1029,7 hPa 0,0 l/m 0 min 0 min 46 W/m 6,4 km/h (2 Bft) 95,74 %
28.05.2020 20:02 20,4 C 17,8 C 16,7 C 50 % 1029,6 hPa 0,0 l/m 0 min 0 min 45 W/m 6,4 km/h (2 Bft) 98,00 %
28.05.2020 20:04 20,3 C 17,8 C 16,7 C 49 % 1029,6 hPa 0,0 l/m 0 min 0 min 44 W/m 9,7 km/h (2 Bft) 100,00 %
28.05.2020 20:06 20,2 C 17,8 C 16,7 C 49 % 1029,7 hPa 0,0 l/m 0 min 0 min 43 W/m 3,2 km/h (1 Bft) 98,00 %
28.05.2020 20:08 20,1 C 17,8 C 16,7 C 50 % 1029,6 hPa 0,0 l/m 0 min 0 min 42 W/m 6,4 km/h (2 Bft) 97,87 %
28.05.2020 20:10 19,9 C 17,8 C 16,1 C 49 % 1029,6 hPa 0,0 l/m 0 min 0 min 41 W/m 9,7 km/h (2 Bft) 95,65 %
28.05.2020 20:12 19,8 C 17,8 C 16,1 C 48 % 1029,6 hPa 0,0 l/m 0 min 0 min 40 W/m 9,7 km/h (2 Bft) 98,11 %
28.05.2020 20:14 19,7 C 17,8 C 16,1 C 49 % 1029,6 hPa 0,0 l/m 0 min 0 min 39 W/m 3,2 km/h (1 Bft) 97,87 %
28.05.2020 20:16 19,6 C 17,8 C 16,1 C 47 % 1029,7 hPa 0,0 l/m 0 min 0 min 34 W/m 6,4 km/h (2 Bft) 95,74 %
28.05.2020 20:18 19,6 C 17,8 C 16,1 C 48 % 1029,7 hPa 0,0 l/m 0 min 0 min 32 W/m 6,4 km/h (2 Bft) 95,74 %
28.05.2020 20:20 19,5 C 17,2 C 16,1 C 49 % 1029,6 hPa 0,0 l/m 0 min 0 min 34 W/m 6,4 km/h (2 Bft) 95,65 %
28.05.2020 20:22 19,4 C 17,2 C 16,1 C 49 % 1029,6 hPa 0,0 l/m 0 min 0 min 35 W/m 9,7 km/h (2 Bft) 97,87 %
28.05.2020 20:24 19,3 C 17,2 C 16,1 C 50 % 1029,6 hPa 0,0 l/m 0 min 0 min 35 W/m 3,2 km/h (1 Bft) 95,74 %
28.05.2020 20:26 19,3 C 17,2 C 16,1 C 50 % 1029,5 hPa 0,0 l/m 0 min 0 min 33 W/m 6,4 km/h (2 Bft) 97,87 %
28.05.2020 20:28 19,2 C 16,7 C 16,1 C 51 % 1029,6 hPa 0,0 l/m 0 min 0 min 32 W/m 3,2 km/h (1 Bft) 97,87 %
28.05.2020 20:30 19,1 C 17,2 C 16,1 C 50 % 1029,6 hPa 0,0 l/m 0 min 0 min 31 W/m 3,2 km/h (1 Bft) 97,87 %
28.05.2020 20:32 19,1 C 16,7 C 15,6 C 52 % 1029,5 hPa 0,0 l/m 0 min 0 min 30 W/m 3,2 km/h (1 Bft) 97,83 %
28.05.2020 20:34 19,0 C 16,7 C 15,6 C 51 % 1029,5 hPa 0,0 l/m 0 min 0 min 29 W/m 3,2 km/h (1 Bft) 97,87 %
28.05.2020 20:36 18,9 C 16,7 C 15,6 C 52 % 1029,5 hPa 0,0 l/m 0 min 0 min 27 W/m 0,0 km/h (0 Bft) 95,74 %
28.05.2020 20:38 18,9 C 16,7 C 15,6 C 53 % 1029,5 hPa 0,0 l/m 0 min 0 min 26 W/m 0,0 km/h (0 Bft) 97,87 %
28.05.2020 20:40 18,8 C 16,1 C 15,0 C 53 % 1029,5 hPa 0,0 l/m 0 min 0 min 25 W/m 3,2 km/h (1 Bft) 97,87 %
28.05.2020 20:42 18,8 C 16,1 C 15,0 C 52 % 1029,5 hPa 0,0 l/m 0 min 0 min 24 W/m 12,9 km/h (3 Bft) 97,87 %
28.05.2020 20:44 18,7 C 16,1 C 15,0 C 53 % 1029,5 hPa 0,0 l/m 0 min 0 min 23 W/m 6,4 km/h (2 Bft) 97,83 %
28.05.2020 20:46 18,6 C 16,1 C 15,0 C 53 % 1029,5 hPa 0,0 l/m 0 min 0 min 21 W/m 3,2 km/h (1 Bft) 97,87 %
28.05.2020 20:48 18,6 C 16,1 C 15,0 C 53 % 1029,5 hPa 0,0 l/m 0 min 0 min 21 W/m 0,0 km/h (0 Bft) 97,87 %
28.05.2020 20:50 18,4 C 16,1 C 15,0 C 53 % 1029,5 hPa 0,0 l/m 0 min 0 min 20 W/m 3,2 km/h (1 Bft) 97,87 %
28.05.2020 20:52 18,4 C 16,1 C 15,0 C 53 % 1029,5 hPa 0,0 l/m 0 min 0 min 19 W/m 0,0 km/h (0 Bft) 97,87 %
28.05.2020 20:54 18,3 C 16,1 C 15,0 C 53 % 1029,5 hPa 0,0 l/m 0 min 0 min 18 W/m 3,2 km/h (1 Bft) 97,87 %
28.05.2020 20:56 18,2 C 15,6 C 15,0 C 54 % 1029,5 hPa 0,0 l/m 0 min 0 min 15 W/m 3,2 km/h (1 Bft) 97,83 %
28.05.2020 20:58 18,2 C 16,1 C 15,0 C 53 % 1029,5 hPa 0,0 l/m 0 min 0 min 14 W/m 3,2 km/h (1 Bft) 97,87 %
28.05.2020 21:00 18,1 C 15,6 C 15,0 C 52 % 1029,6 hPa 0,0 l/m 0 min 0 min 14 W/m 0,0 km/h (0 Bft) 97,87 %
28.05.2020 21:02 18,0 C 15,6 C 15,0 C 53 % 1029,6 hPa 0,0 l/m 0 min 0 min 12 W/m 0,0 km/h (0 Bft) 97,87 %
28.05.2020 21:04 17,9 C 15,6 C 15,0 C 52 % 1029,6 hPa 0,0 l/m 0 min 0 min 12 W/m 0,0 km/h (0 Bft) 97,87 %
28.05.2020 21:06 17,9 C 15,6 C 15,0 C 52 % 1029,6 hPa 0,0 l/m 0 min 0 min 12 W/m 0,0 km/h (0 Bft) 97,87 %
28.05.2020 21:08 17,8 C 15,6 C 14,4 C 53 % 1029,6 hPa 0,0 l/m 0 min 0 min 12 W/m 0,0 km/h (0 Bft) 97,83 %
28.05.2020 21:10 17,8 C 15,6 C 14,4 C 53 % 1029,6 hPa 0,0 l/m 0 min 0 min 11 W/m 0,0 km/h (0 Bft) 97,87 %
28.05.2020 21:12 17,7 C 15,6 C 14,4 C 53 % 1029,7 hPa 0,0 l/m 0 min 0 min 10 W/m 0,0 km/h (0 Bft) 95,74 %
28.05.2020 21:14 17,7 C 15,6 C 14,4 C 54 % 1029,6 hPa 0,0 l/m 0 min 0 min 9 W/m 0,0 km/h (0 Bft) 97,87 %
28.05.2020 21:16 17,6 C 15,6 C 14,4 C 53 % 1029,6 hPa 0,0 l/m 0 min 0 min 9 W/m 3,2 km/h (1 Bft) 97,87 %
28.05.2020 21:18 17,6 C 15,6 C 14,4 C 55 % 1029,7 hPa 0,0 l/m 0 min 0 min 7 W/m 0,0 km/h (0 Bft) 97,83 %
28.05.2020 21:20 17,5 C 15,6 C 14,4 C 55 % 1029,7 hPa 0,0 l/m 0 min 0 min 7 W/m 3,2 km/h (1 Bft) 100,00 %
28.05.2020 21:22 17,4 C 15,6 C 14,4 C 54 % 1029,7 hPa 0,0 l/m 0 min 0 min 7 W/m 0,0 km/h (0 Bft) 97,87 %
28.05.2020 21:24 17,3 C 15,6 C 14,4 C 55 % 1029,7 hPa 0,0 l/m 0 min 0 min 6 W/m 6,4 km/h (2 Bft) 100,00 %
28.05.2020 21:26 17,3 C 15,6 C 14,4 C 54 % 1029,7 hPa 0,0 l/m 0 min 0 min 5 W/m 6,4 km/h (2 Bft) 97,87 %
28.05.2020 21:28 17,2 C 15,6 C 14,4 C 54 % 1029,7 hPa 0,0 l/m 0 min 0 min 5 W/m 3,2 km/h (1 Bft) 100,00 %
28.05.2020 21:30 17,1 C 15,6 C 14,4 C 54 % 1029,7 hPa 0,0 l/m 0 min 0 min 5 W/m 3,2 km/h (1 Bft) 100,00 %
28.05.2020 21:32 17,1 C 15,6 C 14,4 C 55 % 1029,7 hPa 0,0 l/m 0 min 0 min 5 W/m 6,4 km/h (2 Bft) 100,00 %
28.05.2020 21:34 17,1 C 15,0 C 14,4 C 55 % 1029,8 hPa 0,0 l/m 0 min 0 min 2 W/m 3,2 km/h (1 Bft) 95,74 %
28.05.2020 21:36 17,0 C 15,0 C 14,4 C 55 % 1029,8 hPa 0,0 l/m 0 min 0 min 0 W/m 3,2 km/h (1 Bft) 95,74 %
28.05.2020 21:38 16,9 C 15,0 C 14,4 C 55 % 1029,8 hPa 0,0 l/m 0 min 0 min 0 W/m 6,4 km/h (2 Bft) 97,87 %
28.05.2020 21:40 16,9 C 15,0 C 14,4 C 55 % 1029,8 hPa 0,0 l/m 0 min 0 min 0 W/m 3,2 km/h (1 Bft) 95,74 %
28.05.2020 21:42 16,8 C 15,0 C 14,4 C 55 % 1029,8 hPa 0,0 l/m 0 min 0 min 0 W/m 3,2 km/h (1 Bft) 97,83 %
28.05.2020 21:44 16,8 C 15,0 C 14,4 C 55 % 1029,8 hPa 0,0 l/m 0 min 0 min 0 W/m 3,2 km/h (1 Bft) 97,87 %
28.05.2020 21:46 16,8 C 15,0 C 14,4 C 55 % 1029,8 hPa 0,0 l/m 0 min 0 min 0 W/m 3,2 km/h (1 Bft) 97,87 %
28.05.2020 21:48 16,7 C 14,4 C 14,4 C 55 % 1029,9 hPa 0,0 l/m 0 min 0 min 0 W/m 0,0 km/h (0 Bft) 95,74 %
28.05.2020 21:50 16,7 C 14,4 C 13,9 C 55 % 1029,9 hPa 0,0 l/m 0 min 0 min 0 W/m 3,2 km/h (1 Bft) 95,74 %
28.05.2020 21:52 16,6 C 15,0 C 14,4 C 55 % 1029,9 hPa 0,0 l/m 0 min 0 min 0 W/m 3,2 km/h (1 Bft) 95,74 %
28.05.2020 21:54 16,6 C 15,0 C 14,4 C 55 % 1029,8 hPa 0,0 l/m 0 min 0 min 0 W/m 6,4 km/h (2 Bft) 97,83 %
28.05.2020 21:56 16,5 C 14,4 C 14,4 C 56 % 1029,8 hPa 0,0 l/m 0 min 0 min 0 W/m 3,2 km/h (1 Bft) 97,87 %
28.05.2020 21:58 16,5 C 14,4 C 14,4 C 56 % 1029,9 hPa 0,0 l/m 0 min 0 min 0 W/m 3,2 km/h (1 Bft) 97,87 %
28.05.2020 22:00 16,4 C 14,4 C 14,4 C 56 % 1029,9 hPa 0,0 l/m 0 min 0 min 0 W/m 6,4 km/h (2 Bft) 93,62 %
28.05.2020 22:02 16,4 C 14,4 C 13,9 C 56 % 1029,9 hPa 0,0 l/m 0 min 0 min 0 W/m 6,4 km/h (2 Bft) 95,74 %
28.05.2020 22:04 16,3 C 14,4 C 14,4 C 56 % 1030,0 hPa 0,0 l/m 0 min 0 min 0 W/m 6,4 km/h (2 Bft) 93,62 %
28.05.2020 22:06 16,3 C 14,4 C 13,9 C 56 % 1030,0 hPa 0,0 l/m 0 min 0 min 0 W/m 6,4 km/h (2 Bft) 95,65 %
28.05.2020 22:08 16,2 C 14,4 C 13,9 C 56 % 1029,9 hPa 0,0 l/m 0 min 0 min 0 W/m 0,0 km/h (0 Bft) 91,49 %
28.05.2020 22:10 16,2 C 14,4 C 13,9 C 56 % 1030,0 hPa 0,0 l/m 0 min 0 min 0 W/m 0,0 km/h (0 Bft) 95,74 %
28.05.2020 22:12 16,1 C 14,4 C 13,9 C 56 % 1030,0 hPa 0,0 l/m 0 min 0 min 0 W/m 0,0 km/h (0 Bft) 95,74 %
28.05.2020 22:14 16,1 C 14,4 C 13,9 C 57 % 1030,0 hPa 0,0 l/m 0 min 0 min 0 W/m 6,4 km/h (2 Bft) 95,74 %
28.05.2020 22:16 16,1 C 14,4 C 13,9 C 57 % 1030,0 hPa 0,0 l/m 0 min 0 min 0 W/m 3,2 km/h (1 Bft) 95,74 %
28.05.2020 22:18 16,0 C 14,4 C 13,9 C 57 % 1030,0 hPa 0,0 l/m 0 min 0 min 0 W/m 0,0 km/h (0 Bft) 95,65 %
28.05.2020 22:20 15,9 C 14,4 C 13,9 C 57 % 1030,0 hPa 0,0 l/m 0 min 0 min 0 W/m 9,7 km/h (2 Bft) 97,87 %
28.05.2020 22:22 15,9 C 14,4 C 13,9 C 57 % 1030,1 hPa 0,0 l/m 0 min 0 min 0 W/m 3,2 km/h (1 Bft) 91,49 %
28.05.2020 22:24 15,9 C 14,4 C 13,9 C 57 % 1030,1 hPa 0,0 l/m 0 min 0 min 0 W/m 6,4 km/h (2 Bft) 93,62 %
28.05.2020 22:26 15,8 C 14,4 C 13,9 C 57 % 1030,1 hPa 0,0 l/m 0 min 0 min 0 W/m 3,2 km/h (1 Bft) 93,62 %
28.05.2020 22:28 15,8 C 13,9 C 13,9 C 57 % 1030,1 hPa 0,0 l/m 0 min 0 min 0 W/m 3,2 km/h (1 Bft) 97,83 %
28.05.2020 22:30 15,8 C 13,9 C 13,9 C 58 % 1030,1 hPa 0,0 l/m 0 min 0 min 0 W/m 3,2 km/h (1 Bft) 97,87 %
28.05.2020 22:32 15,7 C 13,9 C 13,9 C 58 % 1030,1 hPa 0,0 l/m 0 min 0 min 0 W/m 6,4 km/h (2 Bft) 93,62 %
28.05.2020 22:34 15,7 C 13,9 C 13,9 C 58 % 1030,1 hPa 0,0 l/m 0 min 0 min 0 W/m 6,4 km/h (2 Bft) 97,87 %
28.05.2020 22:36 15,6 C 13,9 C 13,9 C 58 % 1030,1 hPa 0,0 l/m 0 min 0 min 0 W/m 6,4 km/h (2 Bft) 97,87 %
28.05.2020 22:38 15,6 C 13,9 C 13,9 C 58 % 1030,1 hPa 0,0 l/m 0 min 0 min 0 W/m 3,2 km/h (1 Bft) 97,87 %
28.05.2020 22:40 15,6 C 13,9 C 13,9 C 58 % 1030,1 hPa 0,0 l/m 0 min 0 min 0 W/m 9,7 km/h (2 Bft) 100,00 %
28.05.2020 22:42 15,5 C 13,9 C 13,9 C 58 % 1030,2 hPa 0,0 l/m 0 min 0 min 0 W/m 6,4 km/h (2 Bft) 100,00 %
28.05.2020 22:44 15,4 C 13,9 C 13,9 C 58 % 1030,1 hPa 0,0 l/m 0 min 0 min 0 W/m 6,4 km/h (2 Bft) 97,87 %
28.05.2020 22:46 15,4 C 13,9 C 13,9 C 59 % 1030,1 hPa 0,0 l/m 0 min 0 min 0 W/m 3,2 km/h (1 Bft) 100,00 %
28.05.2020 22:48 15,4 C 13,9 C 13,9 C 59 % 1030,1 hPa 0,0 l/m 0 min 0 min 0 W/m 3,2 km/h (1 Bft) 100,00 %
28.05.2020 22:50 15,3 C 13,9 C 13,3 C 59 % 1030,1 hPa 0,0 l/m 0 min 0 min 0 W/m 3,2 km/h (1 Bft) 100,00 %
28.05.2020 22:52 15,3 C 13,9 C 13,3 C 59 % 1030,1 hPa 0,0 l/m 0 min 0 min 0 W/m 3,2 km/h (1 Bft) 100,00 %
28.05.2020 22:54 15,3 C 13,9 C 13,3 C 59 % 1030,1 hPa 0,0 l/m 0 min 0 min 0 W/m 3,2 km/h (1 Bft) 97,83 %
28.05.2020 22:56 15,2 C 13,9 C 13,3 C 59 % 1030,1 hPa 0,0 l/m 0 min 0 min 0 W/m 3,2 km/h (1 Bft) 100,00 %
28.05.2020 22:58 15,2 C 13,3 C 13,3 C 59 % 1030,1 hPa 0,0 l/m 0 min 0 min 0 W/m 0,0 km/h (0 Bft) 100,00 %
28.05.2020 23:00 15,2 C 13,3 C 13,3 C 59 % 1030,1 hPa 0,0 l/m 0 min 0 min 0 W/m 3,2 km/h (1 Bft) 100,00 %
28.05.2020 23:02 15,1 C 13,3 C 13,3 C 59 % 1030,0 hPa 0,0 l/m 0 min 0 min 0 W/m 3,2 km/h (1 Bft) 100,00 %
28.05.2020 23:04 15,1 C 13,3 C 13,3 C 59 % 1030,1 hPa 0,0 l/m 0 min 0 min 0 W/m 3,2 km/h (1 Bft) 100,00 %
28.05.2020 23:06 15,1 C 13,3 C 13,3 C 60 % 1030,1 hPa 0,0 l/m 0 min 0 min 0 W/m 3,2 km/h (1 Bft) 100,00 %
28.05.2020 23:08 15,0 C 13,3 C 13,3 C 60 % 1030,1 hPa 0,0 l/m 0 min 0 min 0 W/m 3,2 km/h (1 Bft) 97,87 %
28.05.2020 23:10 15,0 C 13,3 C 13,3 C 59 % 1030,1 hPa 0,0 l/m 0 min 0 min 0 W/m 6,4 km/h (2 Bft) 100,00 %
28.05.2020 23:12 14,9 C 13,3 C 13,3 C 60 % 1030,1 hPa 0,0 l/m 0 min 0 min 0 W/m 3,2 km/h (1 Bft) 100,00 %
28.05.2020 23:14 14,9 C 13,3 C 13,3 C 60 % 1030,1 hPa 0,0 l/m 0 min 0 min 0 W/m 3,2 km/h (1 Bft) 100,00 %
28.05.2020 23:16 14,8 C 13,3 C 13,3 C 60 % 1030,1 hPa 0,0 l/m 0 min 0 min 0 W/m 6,4 km/h (2 Bft) 100,00 %
28.05.2020 23:18 14,8 C 13,3 C 13,3 C 60 % 1030,1 hPa 0,0 l/m 0 min 0 min 0 W/m 6,4 km/h (2 Bft) 100,00 %
28.05.2020 23:20 14,8 C 13,3 C 13,3 C 60 % 1030,1 hPa 0,0 l/m 0 min 0 min 0 W/m 6,4 km/h (2 Bft) 100,00 %
28.05.2020 23:22 14,7 C 13,3 C 13,3 C 61 % 1030,1 hPa 0,0 l/m 0 min 0 min 0 W/m 6,4 km/h (2 Bft) 100,00 %
28.05.2020 23:24 14,7 C 13,3 C 13,3 C 61 % 1030,1 hPa 0,0 l/m 0 min 0 min 0 W/m 6,4 km/h (2 Bft) 97,87 %
28.05.2020 23:26 14,7 C 13,3 C 13,3 C 61 % 1030,1 hPa 0,0 l/m 0 min 0 min 0 W/m 6,4 km/h (2 Bft) 100,00 %
28.05.2020 23:28 14,6 C 13,3 C 13,3 C 62 % 1030,1 hPa 0,0 l/m 0 min 0 min 0 W/m 0,0 km/h (0 Bft) 100,00 %
28.05.2020 23:30 14,6 C 12,8 C 12,8 C 62 % 1030,2 hPa 0,0 l/m 0 min 0 min 0 W/m 3,2 km/h (1 Bft) 100,00 %
28.05.2020 23:32 14,6 C 12,8 C 12,8 C 62 % 1030,2 hPa 0,0 l/m 0 min 0 min 0 W/m 6,4 km/h (2 Bft) 100,00 %
28.05.2020 23:34 14,5 C 12,8 C 12,8 C 62 % 1030,1 hPa 0,0 l/m 0 min 0 min 0 W/m 0,0 km/h (0 Bft) 100,00 %
28.05.2020 23:36 14,5 C 12,8 C 12,8 C 62 % 1030,2 hPa 0,0 l/m 0 min 0 min 0 W/m 9,7 km/h (2 Bft) 100,00 %
28.05.2020 23:38 14,4 C 12,8 C 12,8 C 62 % 1030,2 hPa 0,0 l/m 0 min 0 min 0 W/m 3,2 km/h (1 Bft) 100,00 %
28.05.2020 23:40 14,4 C 12,8 C 12,8 C 62 % 1030,2 hPa 0,0 l/m 0 min 0 min 0 W/m 3,2 km/h (1 Bft) 100,00 %
28.05.2020 23:42 14,3 C 12,8 C 12,8 C 62 % 1030,2 hPa 0,0 l/m 0 min 0 min 0 W/m 0,0 km/h (0 Bft) 100,00 %
28.05.2020 23:44 14,3 C 12,8 C 12,8 C 62 % 1030,2 hPa 0,0 l/m 0 min 0 min 0 W/m 3,2 km/h (1 Bft) 100,00 %
28.05.2020 23:46 14,3 C 12,8 C 12,8 C 62 % 1030,2 hPa 0,0 l/m 0 min 0 min 0 W/m 3,2 km/h (1 Bft) 100,00 %
28.05.2020 23:48 14,3 C 12,8 C 12,8 C 63 % 1030,2 hPa 0,0 l/m 0 min 0 min 0 W/m 3,2 km/h (1 Bft) 97,87 %
28.05.2020 23:50 14,3 C 12,2 C 12,8 C 62 % 1030,2 hPa 0,0 l/m 0 min 0 min 0 W/m 0,0 km/h (0 Bft) 100,00 %
28.05.2020 23:52 14,3 C 12,2 C 12,2 C 63 % 1030,3 hPa 0,0 l/m 0 min 0 min 0 W/m 3,2 km/h (1 Bft) 100,00 %
28.05.2020 23:54 14,3 C 12,2 C 12,2 C 63 % 1030,3 hPa 0,0 l/m 0 min 0 min 0 W/m 0,0 km/h (0 Bft) 100,00 %
28.05.2020 23:56 14,2 C 12,2 C 12,2 C 63 % 1030,3 hPa 0,0 l/m 0 min 0 min 0 W/m 0,0 km/h (0 Bft) 100,00 %
28.05.2020 23:58 14,2 C 12,2 C 12,2 C 63 % 1030,3 hPa 0,0 l/m 0 min 0 min 0 W/m 3,2 km/h (1 Bft) 95,74 %
_ Min-Zeit 06:26 05:34 05:40 16:22 20:26 - - - - 00:18 08:00
Minimum _ 9,6 C 8,3 C 8,9 C 38 % 1029,5 hPa - - - - 0,0 km/h (0 Bft) 43,24 %
_ Max-Zeit 16:48 14:16 13:46 07:04 08:24 00:00 10:59 00:00 13:28 17:10 01:24
Maximum _ 25,3 C 30,0 C 31,1 C 88 % 1034,5 hPa 0,0 l/m 3 min 0 min 995 W/m 25,7 km/h
O (4 Bft)
100,00 %
Durchschnitt _ 17,6 C 18,7 C 17,4 C 60 % 1032,4 hPa #0,0 l/m #10:38 h #0 min. 512 W/m 6,6 km/h (2 Bft) 97,54 %
© 2020 W. Hausmann